<?xml version="1.0" encoding="UTF-8" standalone="no" ?>
<gpx xmlns="http://www.topografix.com/GPX/1/1" xmlns:xsi="http://www.w3.org/2001/XMLSchema-instance" xsi:schemaLocation="http://www.topografix.com/GPX/1/1 http://www.topografix.com/GPX/1/1/gpx.xsd" version="1.1" creator="VisuGPX - https://www.visugpx.com">
  <metadata>
    <name>Tracé actuel: 27 MARS 2014 13:14</name>
  </metadata>
  <trk>
    <name><![CDATA[Tracé actuel: 27 MARS 2014 13:14]]></name>
    <trkseg>
      <trkpt lat="44.7885" lon="6.93286">
        <ele>1569.49</ele>
        <time>2014-03-27T12:14:27Z</time>
      </trkpt>
      <trkpt lat="44.78851" lon="6.93288">
        <ele>1568.53</ele>
        <time>2014-03-27T12:14:41Z</time>
      </trkpt>
      <trkpt lat="44.78846" lon="6.9328">
        <ele>1569.97</ele>
        <time>2014-03-27T12:14:52Z</time>
      </trkpt>
      <trkpt lat="44.78848" lon="6.93275">
        <ele>1569.97</ele>
        <time>2014-03-27T12:15:03Z</time>
      </trkpt>
      <trkpt lat="44.7885" lon="6.93276">
        <ele>1569.97</ele>
        <time>2014-03-27T12:15:21Z</time>
      </trkpt>
      <trkpt lat="44.78851" lon="6.93288">
        <ele>1569.97</ele>
        <time>2014-03-27T12:15:37Z</time>
      </trkpt>
      <trkpt lat="44.78852" lon="6.93296">
        <ele>1569.97</ele>
        <time>2014-03-27T12:15:49Z</time>
      </trkpt>
      <trkpt lat="44.7885" lon="6.93296">
        <ele>1569.97</ele>
        <time>2014-03-27T12:16:00Z</time>
      </trkpt>
      <trkpt lat="44.78854" lon="6.93299">
        <ele>1569.97</ele>
        <time>2014-03-27T12:16:14Z</time>
      </trkpt>
      <trkpt lat="44.78857" lon="6.933">
        <ele>1569.97</ele>
        <time>2014-03-27T12:16:27Z</time>
      </trkpt>
      <trkpt lat="44.7886" lon="6.93305">
        <ele>1570.45</ele>
        <time>2014-03-27T12:16:49Z</time>
      </trkpt>
      <trkpt lat="44.7886" lon="6.93302">
        <ele>1570.93</ele>
        <time>2014-03-27T12:17:04Z</time>
      </trkpt>
      <trkpt lat="44.78858" lon="6.93301">
        <ele>1570.93</ele>
        <time>2014-03-27T12:17:17Z</time>
      </trkpt>
      <trkpt lat="44.78862" lon="6.933">
        <ele>1570.93</ele>
        <time>2014-03-27T12:17:37Z</time>
      </trkpt>
      <trkpt lat="44.78863" lon="6.93302">
        <ele>1571.41</ele>
        <time>2014-03-27T12:17:54Z</time>
      </trkpt>
      <trkpt lat="44.78862" lon="6.93301">
        <ele>1571.41</ele>
        <time>2014-03-27T12:18:12Z</time>
      </trkpt>
      <trkpt lat="44.78863" lon="6.933">
        <ele>1571.41</ele>
        <time>2014-03-27T12:18:26Z</time>
      </trkpt>
      <trkpt lat="44.78863" lon="6.93302">
        <ele>1571.89</ele>
        <time>2014-03-27T12:18:45Z</time>
      </trkpt>
      <trkpt lat="44.78864" lon="6.93306">
        <ele>1573.33</ele>
        <time>2014-03-27T12:18:53Z</time>
      </trkpt>
      <trkpt lat="44.78867" lon="6.93316">
        <ele>1573.82</ele>
        <time>2014-03-27T12:19:08Z</time>
      </trkpt>
      <trkpt lat="44.78871" lon="6.93315">
        <ele>1574.3</ele>
        <time>2014-03-27T12:19:25Z</time>
      </trkpt>
      <trkpt lat="44.78873" lon="6.93313">
        <ele>1574.78</ele>
        <time>2014-03-27T12:19:44Z</time>
      </trkpt>
      <trkpt lat="44.78873" lon="6.93313">
        <ele>1575.26</ele>
        <time>2014-03-27T12:20:06Z</time>
      </trkpt>
      <trkpt lat="44.78872" lon="6.93316">
        <ele>1576.22</ele>
        <time>2014-03-27T12:20:31Z</time>
      </trkpt>
      <trkpt lat="44.78872" lon="6.93315">
        <ele>1576.7</ele>
        <time>2014-03-27T12:20:44Z</time>
      </trkpt>
      <trkpt lat="44.78872" lon="6.93314">
        <ele>1576.7</ele>
        <time>2014-03-27T12:21:06Z</time>
      </trkpt>
      <trkpt lat="44.78873" lon="6.93315">
        <ele>1576.7</ele>
        <time>2014-03-27T12:21:27Z</time>
      </trkpt>
      <trkpt lat="44.78876" lon="6.93318">
        <ele>1576.7</ele>
        <time>2014-03-27T12:21:51Z</time>
      </trkpt>
      <trkpt lat="44.78874" lon="6.93316">
        <ele>1577.18</ele>
        <time>2014-03-27T12:22:09Z</time>
      </trkpt>
      <trkpt lat="44.78873" lon="6.93316">
        <ele>1577.18</ele>
        <time>2014-03-27T12:22:11Z</time>
      </trkpt>
      <trkpt lat="44.78874" lon="6.93318">
        <ele>1577.18</ele>
        <time>2014-03-27T12:22:23Z</time>
      </trkpt>
      <trkpt lat="44.78874" lon="6.93318">
        <ele>1577.18</ele>
        <time>2014-03-27T12:22:44Z</time>
      </trkpt>
      <trkpt lat="44.78875" lon="6.9332">
        <ele>1577.18</ele>
        <time>2014-03-27T12:23:00Z</time>
      </trkpt>
      <trkpt lat="44.78874" lon="6.93318">
        <ele>1577.18</ele>
        <time>2014-03-27T12:23:16Z</time>
      </trkpt>
      <trkpt lat="44.78875" lon="6.93317">
        <ele>1577.18</ele>
        <time>2014-03-27T12:23:34Z</time>
      </trkpt>
      <trkpt lat="44.78871" lon="6.9332">
        <ele>1577.66</ele>
        <time>2014-03-27T12:23:51Z</time>
      </trkpt>
      <trkpt lat="44.78869" lon="6.93328">
        <ele>1579.1</ele>
        <time>2014-03-27T12:24:01Z</time>
      </trkpt>
      <trkpt lat="44.78867" lon="6.9334">
        <ele>1581.03</ele>
        <time>2014-03-27T12:24:14Z</time>
      </trkpt>
      <trkpt lat="44.78864" lon="6.93353">
        <ele>1583.91</ele>
        <time>2014-03-27T12:24:28Z</time>
      </trkpt>
      <trkpt lat="44.78863" lon="6.93362">
        <ele>1585.83</ele>
        <time>2014-03-27T12:24:41Z</time>
      </trkpt>
      <trkpt lat="44.78862" lon="6.93374">
        <ele>1587.75</ele>
        <time>2014-03-27T12:24:54Z</time>
      </trkpt>
      <trkpt lat="44.7886" lon="6.93385">
        <ele>1589.68</ele>
        <time>2014-03-27T12:25:07Z</time>
      </trkpt>
      <trkpt lat="44.78859" lon="6.9339">
        <ele>1590.16</ele>
        <time>2014-03-27T12:25:19Z</time>
      </trkpt>
      <trkpt lat="44.78858" lon="6.93398">
        <ele>1592.56</ele>
        <time>2014-03-27T12:25:31Z</time>
      </trkpt>
      <trkpt lat="44.78855" lon="6.9341">
        <ele>1594.48</ele>
        <time>2014-03-27T12:25:44Z</time>
      </trkpt>
      <trkpt lat="44.78851" lon="6.93422">
        <ele>1596.89</ele>
        <time>2014-03-27T12:25:58Z</time>
      </trkpt>
      <trkpt lat="44.78849" lon="6.93437">
        <ele>1597.85</ele>
        <time>2014-03-27T12:26:12Z</time>
      </trkpt>
      <trkpt lat="44.78848" lon="6.9344">
        <ele>1598.81</ele>
        <time>2014-03-27T12:26:16Z</time>
      </trkpt>
      <trkpt lat="44.78846" lon="6.93453">
        <ele>1600.73</ele>
        <time>2014-03-27T12:26:30Z</time>
      </trkpt>
      <trkpt lat="44.78845" lon="6.93459">
        <ele>1601.69</ele>
        <time>2014-03-27T12:26:37Z</time>
      </trkpt>
      <trkpt lat="44.7884" lon="6.93475">
        <ele>1604.58</ele>
        <time>2014-03-27T12:26:52Z</time>
      </trkpt>
      <trkpt lat="44.78835" lon="6.93484">
        <ele>1606.98</ele>
        <time>2014-03-27T12:27:06Z</time>
      </trkpt>
      <trkpt lat="44.78826" lon="6.93489">
        <ele>1608.9</ele>
        <time>2014-03-27T12:27:21Z</time>
      </trkpt>
      <trkpt lat="44.7882" lon="6.93494">
        <ele>1609.86</ele>
        <time>2014-03-27T12:27:34Z</time>
      </trkpt>
      <trkpt lat="44.7881" lon="6.93501">
        <ele>1610.83</ele>
        <time>2014-03-27T12:27:48Z</time>
      </trkpt>
      <trkpt lat="44.788" lon="6.93508">
        <ele>1612.75</ele>
        <time>2014-03-27T12:28:03Z</time>
      </trkpt>
      <trkpt lat="44.78792" lon="6.93515">
        <ele>1614.19</ele>
        <time>2014-03-27T12:28:16Z</time>
      </trkpt>
      <trkpt lat="44.78786" lon="6.93523">
        <ele>1616.59</ele>
        <time>2014-03-27T12:28:29Z</time>
      </trkpt>
      <trkpt lat="44.78777" lon="6.9353">
        <ele>1618.04</ele>
        <time>2014-03-27T12:28:42Z</time>
      </trkpt>
      <trkpt lat="44.78771" lon="6.93536">
        <ele>1619.96</ele>
        <time>2014-03-27T12:28:53Z</time>
      </trkpt>
      <trkpt lat="44.78764" lon="6.93544">
        <ele>1621.4</ele>
        <time>2014-03-27T12:29:06Z</time>
      </trkpt>
      <trkpt lat="44.78757" lon="6.93554">
        <ele>1623.32</ele>
        <time>2014-03-27T12:29:20Z</time>
      </trkpt>
      <trkpt lat="44.78748" lon="6.93562">
        <ele>1625.73</ele>
        <time>2014-03-27T12:29:35Z</time>
      </trkpt>
      <trkpt lat="44.78743" lon="6.93569">
        <ele>1627.65</ele>
        <time>2014-03-27T12:29:47Z</time>
      </trkpt>
      <trkpt lat="44.78737" lon="6.93577">
        <ele>1629.57</ele>
        <time>2014-03-27T12:29:59Z</time>
      </trkpt>
      <trkpt lat="44.7873" lon="6.93586">
        <ele>1631.98</ele>
        <time>2014-03-27T12:30:12Z</time>
      </trkpt>
      <trkpt lat="44.78726" lon="6.93591">
        <ele>1632.46</ele>
        <time>2014-03-27T12:30:21Z</time>
      </trkpt>
      <trkpt lat="44.78717" lon="6.93598">
        <ele>1634.86</ele>
        <time>2014-03-27T12:30:36Z</time>
      </trkpt>
      <trkpt lat="44.78707" lon="6.93606">
        <ele>1637.26</ele>
        <time>2014-03-27T12:30:51Z</time>
      </trkpt>
      <trkpt lat="44.787" lon="6.93612">
        <ele>1639.67</ele>
        <time>2014-03-27T12:31:04Z</time>
      </trkpt>
      <trkpt lat="44.78693" lon="6.93619">
        <ele>1642.07</ele>
        <time>2014-03-27T12:31:18Z</time>
      </trkpt>
      <trkpt lat="44.78685" lon="6.93627">
        <ele>1644.47</ele>
        <time>2014-03-27T12:31:32Z</time>
      </trkpt>
      <trkpt lat="44.78677" lon="6.93637">
        <ele>1646.88</ele>
        <time>2014-03-27T12:31:48Z</time>
      </trkpt>
      <trkpt lat="44.78673" lon="6.93647">
        <ele>1648.8</ele>
        <time>2014-03-27T12:32:00Z</time>
      </trkpt>
      <trkpt lat="44.78668" lon="6.93656">
        <ele>1650.72</ele>
        <time>2014-03-27T12:32:15Z</time>
      </trkpt>
      <trkpt lat="44.78668" lon="6.93661">
        <ele>1652.16</ele>
        <time>2014-03-27T12:32:27Z</time>
      </trkpt>
      <trkpt lat="44.78668" lon="6.9366">
        <ele>1652.16</ele>
        <time>2014-03-27T12:32:49Z</time>
      </trkpt>
      <trkpt lat="44.78666" lon="6.93659">
        <ele>1652.16</ele>
        <time>2014-03-27T12:33:03Z</time>
      </trkpt>
      <trkpt lat="44.78668" lon="6.93662">
        <ele>1652.16</ele>
        <time>2014-03-27T12:33:31Z</time>
      </trkpt>
      <trkpt lat="44.78667" lon="6.93664">
        <ele>1652.64</ele>
        <time>2014-03-27T12:33:43Z</time>
      </trkpt>
      <trkpt lat="44.78668" lon="6.93664">
        <ele>1652.64</ele>
        <time>2014-03-27T12:33:55Z</time>
      </trkpt>
      <trkpt lat="44.78668" lon="6.93665">
        <ele>1652.64</ele>
        <time>2014-03-27T12:34:18Z</time>
      </trkpt>
      <trkpt lat="44.78666" lon="6.93664">
        <ele>1652.64</ele>
        <time>2014-03-27T12:34:31Z</time>
      </trkpt>
      <trkpt lat="44.78667" lon="6.93666">
        <ele>1652.64</ele>
        <time>2014-03-27T12:34:46Z</time>
      </trkpt>
      <trkpt lat="44.78667" lon="6.93666">
        <ele>1652.64</ele>
        <time>2014-03-27T12:35:10Z</time>
      </trkpt>
      <trkpt lat="44.78664" lon="6.93665">
        <ele>1653.6</ele>
        <time>2014-03-27T12:35:24Z</time>
      </trkpt>
      <trkpt lat="44.78663" lon="6.93664">
        <ele>1653.6</ele>
        <time>2014-03-27T12:35:46Z</time>
      </trkpt>
      <trkpt lat="44.78664" lon="6.93664">
        <ele>1654.09</ele>
        <time>2014-03-27T12:36:04Z</time>
      </trkpt>
      <trkpt lat="44.78667" lon="6.93666">
        <ele>1654.09</ele>
        <time>2014-03-27T12:36:08Z</time>
      </trkpt>
      <trkpt lat="44.78675" lon="6.93662">
        <ele>1654.57</ele>
        <time>2014-03-27T12:36:23Z</time>
      </trkpt>
      <trkpt lat="44.78685" lon="6.93658">
        <ele>1656.49</ele>
        <time>2014-03-27T12:36:38Z</time>
      </trkpt>
      <trkpt lat="44.78697" lon="6.93655">
        <ele>1658.41</ele>
        <time>2014-03-27T12:36:54Z</time>
      </trkpt>
      <trkpt lat="44.78707" lon="6.93654">
        <ele>1660.81</ele>
        <time>2014-03-27T12:37:09Z</time>
      </trkpt>
      <trkpt lat="44.78716" lon="6.93655">
        <ele>1663.22</ele>
        <time>2014-03-27T12:37:25Z</time>
      </trkpt>
      <trkpt lat="44.78727" lon="6.93655">
        <ele>1666.1</ele>
        <time>2014-03-27T12:37:41Z</time>
      </trkpt>
      <trkpt lat="44.78736" lon="6.93657">
        <ele>1668.02</ele>
        <time>2014-03-27T12:37:55Z</time>
      </trkpt>
      <trkpt lat="44.78744" lon="6.93658">
        <ele>1669.95</ele>
        <time>2014-03-27T12:38:09Z</time>
      </trkpt>
      <trkpt lat="44.78755" lon="6.93663">
        <ele>1672.83</ele>
        <time>2014-03-27T12:38:25Z</time>
      </trkpt>
      <trkpt lat="44.7876" lon="6.93666">
        <ele>1675.23</ele>
        <time>2014-03-27T12:38:38Z</time>
      </trkpt>
      <trkpt lat="44.78765" lon="6.93673">
        <ele>1678.12</ele>
        <time>2014-03-27T12:38:53Z</time>
      </trkpt>
      <trkpt lat="44.7876" lon="6.93682">
        <ele>1680.04</ele>
        <time>2014-03-27T12:39:07Z</time>
      </trkpt>
      <trkpt lat="44.78755" lon="6.93689">
        <ele>1682.93</ele>
        <time>2014-03-27T12:39:22Z</time>
      </trkpt>
      <trkpt lat="44.78747" lon="6.93695">
        <ele>1684.37</ele>
        <time>2014-03-27T12:39:36Z</time>
      </trkpt>
      <trkpt lat="44.78743" lon="6.93702">
        <ele>1687.25</ele>
        <time>2014-03-27T12:39:50Z</time>
      </trkpt>
      <trkpt lat="44.78748" lon="6.93707">
        <ele>1690.14</ele>
        <time>2014-03-27T12:40:08Z</time>
      </trkpt>
      <trkpt lat="44.78743" lon="6.9372">
        <ele>1693.5</ele>
        <time>2014-03-27T12:40:27Z</time>
      </trkpt>
      <trkpt lat="44.78735" lon="6.93731">
        <ele>1695.42</ele>
        <time>2014-03-27T12:40:44Z</time>
      </trkpt>
      <trkpt lat="44.78727" lon="6.93746">
        <ele>1698.31</ele>
        <time>2014-03-27T12:41:01Z</time>
      </trkpt>
      <trkpt lat="44.78724" lon="6.9375">
        <ele>1698.31</ele>
        <time>2014-03-27T12:41:05Z</time>
      </trkpt>
      <trkpt lat="44.78717" lon="6.93762">
        <ele>1700.23</ele>
        <time>2014-03-27T12:41:20Z</time>
      </trkpt>
      <trkpt lat="44.78713" lon="6.93774">
        <ele>1701.19</ele>
        <time>2014-03-27T12:41:34Z</time>
      </trkpt>
      <trkpt lat="44.7871" lon="6.93785">
        <ele>1704.55</ele>
        <time>2014-03-27T12:41:48Z</time>
      </trkpt>
      <trkpt lat="44.78711" lon="6.93797">
        <ele>1706.48</ele>
        <time>2014-03-27T12:42:01Z</time>
      </trkpt>
      <trkpt lat="44.78711" lon="6.93809">
        <ele>1708.4</ele>
        <time>2014-03-27T12:42:18Z</time>
      </trkpt>
      <trkpt lat="44.78706" lon="6.9382">
        <ele>1710.8</ele>
        <time>2014-03-27T12:42:33Z</time>
      </trkpt>
      <trkpt lat="44.78702" lon="6.93829">
        <ele>1712.73</ele>
        <time>2014-03-27T12:42:48Z</time>
      </trkpt>
      <trkpt lat="44.78698" lon="6.93837">
        <ele>1714.17</ele>
        <time>2014-03-27T12:42:58Z</time>
      </trkpt>
      <trkpt lat="44.78689" lon="6.93851">
        <ele>1715.13</ele>
        <time>2014-03-27T12:43:14Z</time>
      </trkpt>
      <trkpt lat="44.78683" lon="6.93863">
        <ele>1718.01</ele>
        <time>2014-03-27T12:43:32Z</time>
      </trkpt>
      <trkpt lat="44.7868" lon="6.93872">
        <ele>1720.42</ele>
        <time>2014-03-27T12:43:46Z</time>
      </trkpt>
      <trkpt lat="44.78677" lon="6.93882">
        <ele>1722.34</ele>
        <time>2014-03-27T12:43:58Z</time>
      </trkpt>
      <trkpt lat="44.7868" lon="6.93883">
        <ele>1723.78</ele>
        <time>2014-03-27T12:44:06Z</time>
      </trkpt>
      <trkpt lat="44.78684" lon="6.93881">
        <ele>1726.67</ele>
        <time>2014-03-27T12:44:22Z</time>
      </trkpt>
      <trkpt lat="44.78686" lon="6.9388">
        <ele>1726.67</ele>
        <time>2014-03-27T12:44:37Z</time>
      </trkpt>
      <trkpt lat="44.78687" lon="6.93878">
        <ele>1727.63</ele>
        <time>2014-03-27T12:44:46Z</time>
      </trkpt>
      <trkpt lat="44.78694" lon="6.93873">
        <ele>1729.55</ele>
        <time>2014-03-27T12:44:59Z</time>
      </trkpt>
      <trkpt lat="44.78697" lon="6.93872">
        <ele>1730.51</ele>
        <time>2014-03-27T12:45:17Z</time>
      </trkpt>
      <trkpt lat="44.78702" lon="6.93871">
        <ele>1730.99</ele>
        <time>2014-03-27T12:45:28Z</time>
      </trkpt>
      <trkpt lat="44.78707" lon="6.93872">
        <ele>1732.43</ele>
        <time>2014-03-27T12:45:39Z</time>
      </trkpt>
      <trkpt lat="44.78714" lon="6.93874">
        <ele>1733.88</ele>
        <time>2014-03-27T12:45:51Z</time>
      </trkpt>
      <trkpt lat="44.78712" lon="6.93883">
        <ele>1735.8</ele>
        <time>2014-03-27T12:46:06Z</time>
      </trkpt>
      <trkpt lat="44.78706" lon="6.93893">
        <ele>1738.2</ele>
        <time>2014-03-27T12:46:21Z</time>
      </trkpt>
      <trkpt lat="44.78702" lon="6.939">
        <ele>1740.12</ele>
        <time>2014-03-27T12:46:33Z</time>
      </trkpt>
      <trkpt lat="44.78699" lon="6.93903">
        <ele>1741.57</ele>
        <time>2014-03-27T12:46:39Z</time>
      </trkpt>
      <trkpt lat="44.78699" lon="6.93907">
        <ele>1741.57</ele>
        <time>2014-03-27T12:46:49Z</time>
      </trkpt>
      <trkpt lat="44.78705" lon="6.93904">
        <ele>1743.49</ele>
        <time>2014-03-27T12:47:03Z</time>
      </trkpt>
      <trkpt lat="44.78707" lon="6.93909">
        <ele>1745.41</ele>
        <time>2014-03-27T12:47:14Z</time>
      </trkpt>
      <trkpt lat="44.78704" lon="6.93915">
        <ele>1745.89</ele>
        <time>2014-03-27T12:47:29Z</time>
      </trkpt>
      <trkpt lat="44.78704" lon="6.93916">
        <ele>1746.85</ele>
        <time>2014-03-27T12:47:42Z</time>
      </trkpt>
      <trkpt lat="44.787" lon="6.93926">
        <ele>1749.74</ele>
        <time>2014-03-27T12:47:57Z</time>
      </trkpt>
      <trkpt lat="44.78696" lon="6.93937">
        <ele>1751.66</ele>
        <time>2014-03-27T12:48:09Z</time>
      </trkpt>
      <trkpt lat="44.78696" lon="6.93938">
        <ele>1752.62</ele>
        <time>2014-03-27T12:48:21Z</time>
      </trkpt>
      <trkpt lat="44.78695" lon="6.93937">
        <ele>1752.62</ele>
        <time>2014-03-27T12:48:35Z</time>
      </trkpt>
      <trkpt lat="44.78699" lon="6.93935">
        <ele>1753.58</ele>
        <time>2014-03-27T12:48:49Z</time>
      </trkpt>
      <trkpt lat="44.78703" lon="6.93938">
        <ele>1755.02</ele>
        <time>2014-03-27T12:49:03Z</time>
      </trkpt>
      <trkpt lat="44.78709" lon="6.93934">
        <ele>1756.95</ele>
        <time>2014-03-27T12:49:17Z</time>
      </trkpt>
      <trkpt lat="44.78712" lon="6.93936">
        <ele>1758.39</ele>
        <time>2014-03-27T12:49:28Z</time>
      </trkpt>
      <trkpt lat="44.7871" lon="6.93949">
        <ele>1760.79</ele>
        <time>2014-03-27T12:49:48Z</time>
      </trkpt>
      <trkpt lat="44.78708" lon="6.93961">
        <ele>1763.68</ele>
        <time>2014-03-27T12:50:06Z</time>
      </trkpt>
      <trkpt lat="44.78713" lon="6.93967">
        <ele>1764.16</ele>
        <time>2014-03-27T12:50:18Z</time>
      </trkpt>
      <trkpt lat="44.78721" lon="6.93964">
        <ele>1767.04</ele>
        <time>2014-03-27T12:50:32Z</time>
      </trkpt>
      <trkpt lat="44.78727" lon="6.93967">
        <ele>1768.96</ele>
        <time>2014-03-27T12:50:47Z</time>
      </trkpt>
      <trkpt lat="44.78726" lon="6.93976">
        <ele>1772.33</ele>
        <time>2014-03-27T12:51:03Z</time>
      </trkpt>
      <trkpt lat="44.78721" lon="6.93992">
        <ele>1775.21</ele>
        <time>2014-03-27T12:51:21Z</time>
      </trkpt>
      <trkpt lat="44.7872" lon="6.94007">
        <ele>1777.61</ele>
        <time>2014-03-27T12:51:39Z</time>
      </trkpt>
      <trkpt lat="44.7872" lon="6.94022">
        <ele>1780.5</ele>
        <time>2014-03-27T12:51:56Z</time>
      </trkpt>
      <trkpt lat="44.78717" lon="6.94039">
        <ele>1781.46</ele>
        <time>2014-03-27T12:52:11Z</time>
      </trkpt>
      <trkpt lat="44.78714" lon="6.94054">
        <ele>1783.86</ele>
        <time>2014-03-27T12:52:26Z</time>
      </trkpt>
      <trkpt lat="44.7871" lon="6.94064">
        <ele>1786.75</ele>
        <time>2014-03-27T12:52:41Z</time>
      </trkpt>
      <trkpt lat="44.78709" lon="6.9407">
        <ele>1786.75</ele>
        <time>2014-03-27T12:52:52Z</time>
      </trkpt>
      <trkpt lat="44.78701" lon="6.94082">
        <ele>1788.67</ele>
        <time>2014-03-27T12:53:09Z</time>
      </trkpt>
      <trkpt lat="44.78693" lon="6.94097">
        <ele>1789.15</ele>
        <time>2014-03-27T12:53:29Z</time>
      </trkpt>
      <trkpt lat="44.78694" lon="6.94097">
        <ele>1790.11</ele>
        <time>2014-03-27T12:53:40Z</time>
      </trkpt>
      <trkpt lat="44.78701" lon="6.94098">
        <ele>1793.48</ele>
        <time>2014-03-27T12:53:55Z</time>
      </trkpt>
      <trkpt lat="44.78704" lon="6.94101">
        <ele>1795.88</ele>
        <time>2014-03-27T12:54:08Z</time>
      </trkpt>
      <trkpt lat="44.78707" lon="6.94101">
        <ele>1798.28</ele>
        <time>2014-03-27T12:54:22Z</time>
      </trkpt>
      <trkpt lat="44.7871" lon="6.94103">
        <ele>1798.28</ele>
        <time>2014-03-27T12:54:33Z</time>
      </trkpt>
      <trkpt lat="44.7871" lon="6.94102">
        <ele>1798.28</ele>
        <time>2014-03-27T12:54:57Z</time>
      </trkpt>
      <trkpt lat="44.78711" lon="6.94103">
        <ele>1798.28</ele>
        <time>2014-03-27T12:55:18Z</time>
      </trkpt>
      <trkpt lat="44.78713" lon="6.94108">
        <ele>1799.73</ele>
        <time>2014-03-27T12:55:29Z</time>
      </trkpt>
      <trkpt lat="44.78722" lon="6.94113">
        <ele>1802.13</ele>
        <time>2014-03-27T12:55:45Z</time>
      </trkpt>
      <trkpt lat="44.78732" lon="6.94113">
        <ele>1804.53</ele>
        <time>2014-03-27T12:56:02Z</time>
      </trkpt>
      <trkpt lat="44.78737" lon="6.94112">
        <ele>1806.94</ele>
        <time>2014-03-27T12:56:15Z</time>
      </trkpt>
      <trkpt lat="44.78744" lon="6.9411">
        <ele>1809.34</ele>
        <time>2014-03-27T12:56:30Z</time>
      </trkpt>
      <trkpt lat="44.78753" lon="6.94108">
        <ele>1810.78</ele>
        <time>2014-03-27T12:56:45Z</time>
      </trkpt>
      <trkpt lat="44.78761" lon="6.94106">
        <ele>1813.18</ele>
        <time>2014-03-27T12:56:59Z</time>
      </trkpt>
      <trkpt lat="44.78771" lon="6.94103">
        <ele>1815.11</ele>
        <time>2014-03-27T12:57:14Z</time>
      </trkpt>
      <trkpt lat="44.78775" lon="6.941">
        <ele>1816.55</ele>
        <time>2014-03-27T12:57:25Z</time>
      </trkpt>
      <trkpt lat="44.78776" lon="6.941">
        <ele>1816.55</ele>
        <time>2014-03-27T12:57:46Z</time>
      </trkpt>
      <trkpt lat="44.78777" lon="6.94098">
        <ele>1817.03</ele>
        <time>2014-03-27T12:58:12Z</time>
      </trkpt>
      <trkpt lat="44.78778" lon="6.94101">
        <ele>1815.59</ele>
        <time>2014-03-27T12:58:33Z</time>
      </trkpt>
      <trkpt lat="44.78777" lon="6.94099">
        <ele>1817.03</ele>
        <time>2014-03-27T12:58:51Z</time>
      </trkpt>
      <trkpt lat="44.78778" lon="6.94099">
        <ele>1817.03</ele>
        <time>2014-03-27T12:59:04Z</time>
      </trkpt>
      <trkpt lat="44.78779" lon="6.94098">
        <ele>1817.03</ele>
        <time>2014-03-27T12:59:24Z</time>
      </trkpt>
      <trkpt lat="44.78778" lon="6.94096">
        <ele>1817.03</ele>
        <time>2014-03-27T12:59:51Z</time>
      </trkpt>
      <trkpt lat="44.78779" lon="6.94098">
        <ele>1817.03</ele>
        <time>2014-03-27T13:00:10Z</time>
      </trkpt>
      <trkpt lat="44.78776" lon="6.94108">
        <ele>1818.47</ele>
        <time>2014-03-27T13:00:24Z</time>
      </trkpt>
      <trkpt lat="44.78776" lon="6.94113">
        <ele>1819.43</ele>
        <time>2014-03-27T13:00:40Z</time>
      </trkpt>
      <trkpt lat="44.78773" lon="6.94115">
        <ele>1819.91</ele>
        <time>2014-03-27T13:00:55Z</time>
      </trkpt>
      <trkpt lat="44.78769" lon="6.94127">
        <ele>1823.76</ele>
        <time>2014-03-27T13:01:11Z</time>
      </trkpt>
      <trkpt lat="44.78765" lon="6.9414">
        <ele>1825.68</ele>
        <time>2014-03-27T13:01:25Z</time>
      </trkpt>
      <trkpt lat="44.78764" lon="6.94151">
        <ele>1828.08</ele>
        <time>2014-03-27T13:01:39Z</time>
      </trkpt>
      <trkpt lat="44.78762" lon="6.9416">
        <ele>1830.49</ele>
        <time>2014-03-27T13:01:52Z</time>
      </trkpt>
      <trkpt lat="44.7876" lon="6.9417">
        <ele>1832.89</ele>
        <time>2014-03-27T13:02:06Z</time>
      </trkpt>
      <trkpt lat="44.78758" lon="6.94183">
        <ele>1835.77</ele>
        <time>2014-03-27T13:02:23Z</time>
      </trkpt>
      <trkpt lat="44.78755" lon="6.94196">
        <ele>1838.66</ele>
        <time>2014-03-27T13:02:39Z</time>
      </trkpt>
      <trkpt lat="44.78752" lon="6.94208">
        <ele>1842.02</ele>
        <time>2014-03-27T13:02:55Z</time>
      </trkpt>
      <trkpt lat="44.7875" lon="6.94217">
        <ele>1843.47</ele>
        <time>2014-03-27T13:03:08Z</time>
      </trkpt>
      <trkpt lat="44.78747" lon="6.94228">
        <ele>1846.83</ele>
        <time>2014-03-27T13:03:20Z</time>
      </trkpt>
      <trkpt lat="44.78746" lon="6.94238">
        <ele>1848.75</ele>
        <time>2014-03-27T13:03:34Z</time>
      </trkpt>
      <trkpt lat="44.78745" lon="6.94248">
        <ele>1851.16</ele>
        <time>2014-03-27T13:03:49Z</time>
      </trkpt>
      <trkpt lat="44.78746" lon="6.94258">
        <ele>1854.04</ele>
        <time>2014-03-27T13:04:04Z</time>
      </trkpt>
      <trkpt lat="44.78745" lon="6.94268">
        <ele>1856.44</ele>
        <time>2014-03-27T13:04:18Z</time>
      </trkpt>
      <trkpt lat="44.78745" lon="6.94281">
        <ele>1859.33</ele>
        <time>2014-03-27T13:04:34Z</time>
      </trkpt>
      <trkpt lat="44.78745" lon="6.94294">
        <ele>1861.73</ele>
        <time>2014-03-27T13:04:51Z</time>
      </trkpt>
      <trkpt lat="44.78745" lon="6.94304">
        <ele>1865.09</ele>
        <time>2014-03-27T13:05:05Z</time>
      </trkpt>
      <trkpt lat="44.78745" lon="6.94315">
        <ele>1867.98</ele>
        <time>2014-03-27T13:05:20Z</time>
      </trkpt>
      <trkpt lat="44.78745" lon="6.94326">
        <ele>1869.9</ele>
        <time>2014-03-27T13:05:34Z</time>
      </trkpt>
      <trkpt lat="44.78749" lon="6.94333">
        <ele>1871.82</ele>
        <time>2014-03-27T13:05:46Z</time>
      </trkpt>
      <trkpt lat="44.78755" lon="6.94335">
        <ele>1873.27</ele>
        <time>2014-03-27T13:05:58Z</time>
      </trkpt>
      <trkpt lat="44.78761" lon="6.94336">
        <ele>1875.67</ele>
        <time>2014-03-27T13:06:11Z</time>
      </trkpt>
      <trkpt lat="44.78765" lon="6.94337">
        <ele>1878.07</ele>
        <time>2014-03-27T13:06:25Z</time>
      </trkpt>
      <trkpt lat="44.78771" lon="6.9434">
        <ele>1880</ele>
        <time>2014-03-27T13:06:37Z</time>
      </trkpt>
      <trkpt lat="44.78777" lon="6.94345">
        <ele>1882.88</ele>
        <time>2014-03-27T13:06:54Z</time>
      </trkpt>
      <trkpt lat="44.78782" lon="6.94349">
        <ele>1884.8</ele>
        <time>2014-03-27T13:07:06Z</time>
      </trkpt>
      <trkpt lat="44.78791" lon="6.9435">
        <ele>1887.69</ele>
        <time>2014-03-27T13:07:23Z</time>
      </trkpt>
      <trkpt lat="44.78798" lon="6.94347">
        <ele>1889.61</ele>
        <time>2014-03-27T13:07:38Z</time>
      </trkpt>
      <trkpt lat="44.78804" lon="6.94346">
        <ele>1890.57</ele>
        <time>2014-03-27T13:08:03Z</time>
      </trkpt>
      <trkpt lat="44.78811" lon="6.94348">
        <ele>1893.45</ele>
        <time>2014-03-27T13:08:20Z</time>
      </trkpt>
      <trkpt lat="44.78821" lon="6.94347">
        <ele>1896.34</ele>
        <time>2014-03-27T13:08:37Z</time>
      </trkpt>
      <trkpt lat="44.78829" lon="6.94348">
        <ele>1898.26</ele>
        <time>2014-03-27T13:08:50Z</time>
      </trkpt>
      <trkpt lat="44.78837" lon="6.94347">
        <ele>1900.18</ele>
        <time>2014-03-27T13:09:04Z</time>
      </trkpt>
      <trkpt lat="44.78844" lon="6.94347">
        <ele>1902.59</ele>
        <time>2014-03-27T13:09:19Z</time>
      </trkpt>
      <trkpt lat="44.78851" lon="6.94351">
        <ele>1904.51</ele>
        <time>2014-03-27T13:09:32Z</time>
      </trkpt>
      <trkpt lat="44.78857" lon="6.94354">
        <ele>1906.91</ele>
        <time>2014-03-27T13:09:46Z</time>
      </trkpt>
      <trkpt lat="44.78866" lon="6.94354">
        <ele>1908.35</ele>
        <time>2014-03-27T13:10:02Z</time>
      </trkpt>
      <trkpt lat="44.78873" lon="6.94354">
        <ele>1909.32</ele>
        <time>2014-03-27T13:10:12Z</time>
      </trkpt>
      <trkpt lat="44.78882" lon="6.94358">
        <ele>1911.72</ele>
        <time>2014-03-27T13:10:31Z</time>
      </trkpt>
      <trkpt lat="44.7889" lon="6.94356">
        <ele>1913.64</ele>
        <time>2014-03-27T13:10:46Z</time>
      </trkpt>
      <trkpt lat="44.78891" lon="6.94356">
        <ele>1914.6</ele>
        <time>2014-03-27T13:11:04Z</time>
      </trkpt>
      <trkpt lat="44.78893" lon="6.94354">
        <ele>1914.6</ele>
        <time>2014-03-27T13:11:24Z</time>
      </trkpt>
      <trkpt lat="44.78895" lon="6.94356">
        <ele>1915.08</ele>
        <time>2014-03-27T13:11:39Z</time>
      </trkpt>
      <trkpt lat="44.78893" lon="6.94356">
        <ele>1915.08</ele>
        <time>2014-03-27T13:11:59Z</time>
      </trkpt>
      <trkpt lat="44.78893" lon="6.94356">
        <ele>1915.08</ele>
        <time>2014-03-27T13:12:20Z</time>
      </trkpt>
      <trkpt lat="44.78898" lon="6.94356">
        <ele>1915.56</ele>
        <time>2014-03-27T13:12:50Z</time>
      </trkpt>
      <trkpt lat="44.78898" lon="6.94356">
        <ele>1915.56</ele>
        <time>2014-03-27T13:13:09Z</time>
      </trkpt>
      <trkpt lat="44.78899" lon="6.94355">
        <ele>1915.56</ele>
        <time>2014-03-27T13:13:39Z</time>
      </trkpt>
      <trkpt lat="44.78898" lon="6.94356">
        <ele>1915.56</ele>
        <time>2014-03-27T13:13:51Z</time>
      </trkpt>
      <trkpt lat="44.789" lon="6.94361">
        <ele>1915.56</ele>
        <time>2014-03-27T13:14:08Z</time>
      </trkpt>
      <trkpt lat="44.78906" lon="6.94366">
        <ele>1916.53</ele>
        <time>2014-03-27T13:14:20Z</time>
      </trkpt>
      <trkpt lat="44.78908" lon="6.94371">
        <ele>1917.49</ele>
        <time>2014-03-27T13:14:37Z</time>
      </trkpt>
      <trkpt lat="44.7891" lon="6.94372">
        <ele>1917.97</ele>
        <time>2014-03-27T13:14:58Z</time>
      </trkpt>
      <trkpt lat="44.78918" lon="6.94373">
        <ele>1920.37</ele>
        <time>2014-03-27T13:15:15Z</time>
      </trkpt>
      <trkpt lat="44.78926" lon="6.94372">
        <ele>1923.25</ele>
        <time>2014-03-27T13:15:32Z</time>
      </trkpt>
      <trkpt lat="44.78936" lon="6.9437">
        <ele>1925.66</ele>
        <time>2014-03-27T13:15:47Z</time>
      </trkpt>
      <trkpt lat="44.78946" lon="6.94372">
        <ele>1927.58</ele>
        <time>2014-03-27T13:16:04Z</time>
      </trkpt>
      <trkpt lat="44.78956" lon="6.9438">
        <ele>1929.5</ele>
        <time>2014-03-27T13:16:21Z</time>
      </trkpt>
      <trkpt lat="44.78966" lon="6.94381">
        <ele>1930.95</ele>
        <time>2014-03-27T13:16:34Z</time>
      </trkpt>
      <trkpt lat="44.78973" lon="6.94387">
        <ele>1932.87</ele>
        <time>2014-03-27T13:16:50Z</time>
      </trkpt>
      <trkpt lat="44.78979" lon="6.94387">
        <ele>1935.27</ele>
        <time>2014-03-27T13:17:05Z</time>
      </trkpt>
      <trkpt lat="44.78989" lon="6.94392">
        <ele>1937.19</ele>
        <time>2014-03-27T13:17:22Z</time>
      </trkpt>
      <trkpt lat="44.79001" lon="6.94394">
        <ele>1939.12</ele>
        <time>2014-03-27T13:17:36Z</time>
      </trkpt>
      <trkpt lat="44.79011" lon="6.94395">
        <ele>1942</ele>
        <time>2014-03-27T13:17:53Z</time>
      </trkpt>
      <trkpt lat="44.7902" lon="6.94392">
        <ele>1944.4</ele>
        <time>2014-03-27T13:18:09Z</time>
      </trkpt>
      <trkpt lat="44.79029" lon="6.94395">
        <ele>1946.81</ele>
        <time>2014-03-27T13:18:25Z</time>
      </trkpt>
      <trkpt lat="44.79038" lon="6.94396">
        <ele>1950.17</ele>
        <time>2014-03-27T13:18:42Z</time>
      </trkpt>
      <trkpt lat="44.79046" lon="6.94403">
        <ele>1951.61</ele>
        <time>2014-03-27T13:18:58Z</time>
      </trkpt>
      <trkpt lat="44.79058" lon="6.94408">
        <ele>1954.5</ele>
        <time>2014-03-27T13:19:13Z</time>
      </trkpt>
      <trkpt lat="44.79064" lon="6.94414">
        <ele>1955.94</ele>
        <time>2014-03-27T13:19:26Z</time>
      </trkpt>
      <trkpt lat="44.79071" lon="6.94414">
        <ele>1958.34</ele>
        <time>2014-03-27T13:19:40Z</time>
      </trkpt>
      <trkpt lat="44.79076" lon="6.94411">
        <ele>1960.75</ele>
        <time>2014-03-27T13:19:53Z</time>
      </trkpt>
      <trkpt lat="44.79087" lon="6.94412">
        <ele>1962.67</ele>
        <time>2014-03-27T13:20:10Z</time>
      </trkpt>
      <trkpt lat="44.7909" lon="6.94411">
        <ele>1966.03</ele>
        <time>2014-03-27T13:20:19Z</time>
      </trkpt>
      <trkpt lat="44.79094" lon="6.94414">
        <ele>1966.03</ele>
        <time>2014-03-27T13:20:24Z</time>
      </trkpt>
      <trkpt lat="44.79099" lon="6.94421">
        <ele>1967.48</ele>
        <time>2014-03-27T13:20:38Z</time>
      </trkpt>
      <trkpt lat="44.79107" lon="6.9443">
        <ele>1969.88</ele>
        <time>2014-03-27T13:20:53Z</time>
      </trkpt>
      <trkpt lat="44.79115" lon="6.94431">
        <ele>1972.76</ele>
        <time>2014-03-27T13:21:07Z</time>
      </trkpt>
      <trkpt lat="44.79125" lon="6.94445">
        <ele>1975.65</ele>
        <time>2014-03-27T13:21:22Z</time>
      </trkpt>
      <trkpt lat="44.79132" lon="6.94455">
        <ele>1978.53</ele>
        <time>2014-03-27T13:21:37Z</time>
      </trkpt>
      <trkpt lat="44.79141" lon="6.94463">
        <ele>1981.41</ele>
        <time>2014-03-27T13:21:53Z</time>
      </trkpt>
      <trkpt lat="44.79147" lon="6.94467">
        <ele>1984.3</ele>
        <time>2014-03-27T13:22:10Z</time>
      </trkpt>
      <trkpt lat="44.79151" lon="6.94477">
        <ele>1986.7</ele>
        <time>2014-03-27T13:22:26Z</time>
      </trkpt>
      <trkpt lat="44.79156" lon="6.94489">
        <ele>1988.14</ele>
        <time>2014-03-27T13:22:43Z</time>
      </trkpt>
      <trkpt lat="44.79159" lon="6.945">
        <ele>1989.1</ele>
        <time>2014-03-27T13:22:59Z</time>
      </trkpt>
      <trkpt lat="44.79162" lon="6.94514">
        <ele>1990.55</ele>
        <time>2014-03-27T13:23:14Z</time>
      </trkpt>
      <trkpt lat="44.79162" lon="6.94528">
        <ele>1992.95</ele>
        <time>2014-03-27T13:23:29Z</time>
      </trkpt>
      <trkpt lat="44.79164" lon="6.94541">
        <ele>1995.35</ele>
        <time>2014-03-27T13:23:46Z</time>
      </trkpt>
      <trkpt lat="44.79165" lon="6.9456">
        <ele>1997.76</ele>
        <time>2014-03-27T13:24:03Z</time>
      </trkpt>
      <trkpt lat="44.79165" lon="6.94569">
        <ele>2000.16</ele>
        <time>2014-03-27T13:24:20Z</time>
      </trkpt>
      <trkpt lat="44.79165" lon="6.94575">
        <ele>2001.12</ele>
        <time>2014-03-27T13:24:38Z</time>
      </trkpt>
      <trkpt lat="44.79163" lon="6.94586">
        <ele>2003.52</ele>
        <time>2014-03-27T13:24:53Z</time>
      </trkpt>
      <trkpt lat="44.79161" lon="6.94598">
        <ele>2006.41</ele>
        <time>2014-03-27T13:25:08Z</time>
      </trkpt>
      <trkpt lat="44.79161" lon="6.94605">
        <ele>2008.81</ele>
        <time>2014-03-27T13:25:22Z</time>
      </trkpt>
      <trkpt lat="44.79159" lon="6.94611">
        <ele>2008.81</ele>
        <time>2014-03-27T13:25:49Z</time>
      </trkpt>
      <trkpt lat="44.79157" lon="6.94618">
        <ele>2008.81</ele>
        <time>2014-03-27T13:26:23Z</time>
      </trkpt>
      <trkpt lat="44.79158" lon="6.94619">
        <ele>2008.81</ele>
        <time>2014-03-27T13:26:49Z</time>
      </trkpt>
      <trkpt lat="44.7916" lon="6.94614">
        <ele>2009.29</ele>
        <time>2014-03-27T13:27:06Z</time>
      </trkpt>
      <trkpt lat="44.7916" lon="6.94615">
        <ele>2009.29</ele>
        <time>2014-03-27T13:27:27Z</time>
      </trkpt>
      <trkpt lat="44.7916" lon="6.94617">
        <ele>2009.29</ele>
        <time>2014-03-27T13:27:50Z</time>
      </trkpt>
      <trkpt lat="44.79161" lon="6.94617">
        <ele>2009.29</ele>
        <time>2014-03-27T13:28:15Z</time>
      </trkpt>
      <trkpt lat="44.79159" lon="6.94615">
        <ele>2009.29</ele>
        <time>2014-03-27T13:28:40Z</time>
      </trkpt>
      <trkpt lat="44.79161" lon="6.94615">
        <ele>2009.77</ele>
        <time>2014-03-27T13:29:00Z</time>
      </trkpt>
      <trkpt lat="44.79162" lon="6.94614">
        <ele>2010.25</ele>
        <time>2014-03-27T13:29:14Z</time>
      </trkpt>
      <trkpt lat="44.79167" lon="6.94614">
        <ele>2011.22</ele>
        <time>2014-03-27T13:29:25Z</time>
      </trkpt>
      <trkpt lat="44.7917" lon="6.9461">
        <ele>2012.18</ele>
        <time>2014-03-27T13:29:39Z</time>
      </trkpt>
      <trkpt lat="44.79174" lon="6.94603">
        <ele>2013.14</ele>
        <time>2014-03-27T13:29:53Z</time>
      </trkpt>
      <trkpt lat="44.7918" lon="6.94602">
        <ele>2016.02</ele>
        <time>2014-03-27T13:30:10Z</time>
      </trkpt>
      <trkpt lat="44.79188" lon="6.94603">
        <ele>2017.46</ele>
        <time>2014-03-27T13:30:24Z</time>
      </trkpt>
      <trkpt lat="44.79197" lon="6.94601">
        <ele>2019.39</ele>
        <time>2014-03-27T13:30:38Z</time>
      </trkpt>
      <trkpt lat="44.79207" lon="6.94603">
        <ele>2020.83</ele>
        <time>2014-03-27T13:30:55Z</time>
      </trkpt>
      <trkpt lat="44.7922" lon="6.94614">
        <ele>2023.23</ele>
        <time>2014-03-27T13:31:13Z</time>
      </trkpt>
      <trkpt lat="44.79228" lon="6.94619">
        <ele>2024.19</ele>
        <time>2014-03-27T13:31:28Z</time>
      </trkpt>
      <trkpt lat="44.79237" lon="6.94628">
        <ele>2024.67</ele>
        <time>2014-03-27T13:31:45Z</time>
      </trkpt>
      <trkpt lat="44.79246" lon="6.94637">
        <ele>2025.64</ele>
        <time>2014-03-27T13:32:00Z</time>
      </trkpt>
      <trkpt lat="44.79259" lon="6.94648">
        <ele>2026.6</ele>
        <time>2014-03-27T13:32:19Z</time>
      </trkpt>
      <trkpt lat="44.79259" lon="6.94648">
        <ele>2026.6</ele>
        <time>2014-03-27T13:32:20Z</time>
      </trkpt>
      <trkpt lat="44.79268" lon="6.94658">
        <ele>2027.56</ele>
        <time>2014-03-27T13:32:33Z</time>
      </trkpt>
      <trkpt lat="44.79277" lon="6.94662">
        <ele>2029.48</ele>
        <time>2014-03-27T13:32:53Z</time>
      </trkpt>
      <trkpt lat="44.79285" lon="6.94668">
        <ele>2030.44</ele>
        <time>2014-03-27T13:33:06Z</time>
      </trkpt>
      <trkpt lat="44.79293" lon="6.94675">
        <ele>2031.4</ele>
        <time>2014-03-27T13:33:20Z</time>
      </trkpt>
      <trkpt lat="44.79306" lon="6.94678">
        <ele>2032.84</ele>
        <time>2014-03-27T13:33:38Z</time>
      </trkpt>
      <trkpt lat="44.79317" lon="6.94677">
        <ele>2033.33</ele>
        <time>2014-03-27T13:33:52Z</time>
      </trkpt>
      <trkpt lat="44.79328" lon="6.94672">
        <ele>2033.81</ele>
        <time>2014-03-27T13:34:06Z</time>
      </trkpt>
      <trkpt lat="44.79332" lon="6.94668">
        <ele>2034.29</ele>
        <time>2014-03-27T13:34:12Z</time>
      </trkpt>
      <trkpt lat="44.79343" lon="6.9466">
        <ele>2034.77</ele>
        <time>2014-03-27T13:34:25Z</time>
      </trkpt>
      <trkpt lat="44.7935" lon="6.94653">
        <ele>2035.25</ele>
        <time>2014-03-27T13:34:35Z</time>
      </trkpt>
      <trkpt lat="44.79356" lon="6.94646">
        <ele>2036.21</ele>
        <time>2014-03-27T13:34:49Z</time>
      </trkpt>
      <trkpt lat="44.7936" lon="6.94641">
        <ele>2036.69</ele>
        <time>2014-03-27T13:34:59Z</time>
      </trkpt>
      <trkpt lat="44.79363" lon="6.94639">
        <ele>2036.69</ele>
        <time>2014-03-27T13:35:12Z</time>
      </trkpt>
      <trkpt lat="44.7937" lon="6.9463">
        <ele>2037.65</ele>
        <time>2014-03-27T13:35:27Z</time>
      </trkpt>
      <trkpt lat="44.79372" lon="6.94628">
        <ele>2037.65</ele>
        <time>2014-03-27T13:35:34Z</time>
      </trkpt>
      <trkpt lat="44.79382" lon="6.94624">
        <ele>2037.65</ele>
        <time>2014-03-27T13:35:48Z</time>
      </trkpt>
      <trkpt lat="44.79392" lon="6.9462">
        <ele>2037.65</ele>
        <time>2014-03-27T13:35:58Z</time>
      </trkpt>
      <trkpt lat="44.79404" lon="6.94614">
        <ele>2038.61</ele>
        <time>2014-03-27T13:36:13Z</time>
      </trkpt>
      <trkpt lat="44.7941" lon="6.9461">
        <ele>2039.57</ele>
        <time>2014-03-27T13:36:27Z</time>
      </trkpt>
      <trkpt lat="44.79415" lon="6.94608">
        <ele>2040.54</ele>
        <time>2014-03-27T13:36:41Z</time>
      </trkpt>
      <trkpt lat="44.7942" lon="6.94606">
        <ele>2040.54</ele>
        <time>2014-03-27T13:36:56Z</time>
      </trkpt>
      <trkpt lat="44.79421" lon="6.94606">
        <ele>2040.54</ele>
        <time>2014-03-27T13:37:26Z</time>
      </trkpt>
      <trkpt lat="44.79424" lon="6.94603">
        <ele>2041.02</ele>
        <time>2014-03-27T13:37:53Z</time>
      </trkpt>
      <trkpt lat="44.79428" lon="6.94602">
        <ele>2041.98</ele>
        <time>2014-03-27T13:38:05Z</time>
      </trkpt>
      <trkpt lat="44.79439" lon="6.94606">
        <ele>2043.9</ele>
        <time>2014-03-27T13:38:21Z</time>
      </trkpt>
      <trkpt lat="44.79443" lon="6.94607">
        <ele>2044.86</ele>
        <time>2014-03-27T13:38:37Z</time>
      </trkpt>
      <trkpt lat="44.79448" lon="6.94609">
        <ele>2045.34</ele>
        <time>2014-03-27T13:38:49Z</time>
      </trkpt>
      <trkpt lat="44.79457" lon="6.94609">
        <ele>2045.82</ele>
        <time>2014-03-27T13:39:03Z</time>
      </trkpt>
      <trkpt lat="44.79468" lon="6.94611">
        <ele>2047.75</ele>
        <time>2014-03-27T13:39:18Z</time>
      </trkpt>
      <trkpt lat="44.79477" lon="6.9461">
        <ele>2050.63</ele>
        <time>2014-03-27T13:39:33Z</time>
      </trkpt>
      <trkpt lat="44.79486" lon="6.94607">
        <ele>2053.99</ele>
        <time>2014-03-27T13:39:47Z</time>
      </trkpt>
      <trkpt lat="44.79496" lon="6.94609">
        <ele>2055.92</ele>
        <time>2014-03-27T13:40:02Z</time>
      </trkpt>
      <trkpt lat="44.7951" lon="6.9461">
        <ele>2058.8</ele>
        <time>2014-03-27T13:40:20Z</time>
      </trkpt>
      <trkpt lat="44.79518" lon="6.94622">
        <ele>2061.68</ele>
        <time>2014-03-27T13:40:34Z</time>
      </trkpt>
      <trkpt lat="44.79525" lon="6.9463">
        <ele>2064.57</ele>
        <time>2014-03-27T13:40:49Z</time>
      </trkpt>
      <trkpt lat="44.79529" lon="6.94641">
        <ele>2067.45</ele>
        <time>2014-03-27T13:41:04Z</time>
      </trkpt>
      <trkpt lat="44.79528" lon="6.94652">
        <ele>2070.34</ele>
        <time>2014-03-27T13:41:18Z</time>
      </trkpt>
      <trkpt lat="44.7953" lon="6.94666">
        <ele>2073.22</ele>
        <time>2014-03-27T13:41:36Z</time>
      </trkpt>
      <trkpt lat="44.7953" lon="6.9468">
        <ele>2075.14</ele>
        <time>2014-03-27T13:41:50Z</time>
      </trkpt>
      <trkpt lat="44.7953" lon="6.94694">
        <ele>2078.03</ele>
        <time>2014-03-27T13:42:07Z</time>
      </trkpt>
      <trkpt lat="44.79531" lon="6.94707">
        <ele>2080.91</ele>
        <time>2014-03-27T13:42:23Z</time>
      </trkpt>
      <trkpt lat="44.7953" lon="6.94726">
        <ele>2082.83</ele>
        <time>2014-03-27T13:42:40Z</time>
      </trkpt>
      <trkpt lat="44.79533" lon="6.9474">
        <ele>2085.72</ele>
        <time>2014-03-27T13:42:57Z</time>
      </trkpt>
      <trkpt lat="44.79531" lon="6.94754">
        <ele>2087.64</ele>
        <time>2014-03-27T13:43:12Z</time>
      </trkpt>
      <trkpt lat="44.79532" lon="6.94767">
        <ele>2090.52</ele>
        <time>2014-03-27T13:43:30Z</time>
      </trkpt>
      <trkpt lat="44.79537" lon="6.94783">
        <ele>2093.41</ele>
        <time>2014-03-27T13:43:49Z</time>
      </trkpt>
      <trkpt lat="44.79538" lon="6.94788">
        <ele>2093.89</ele>
        <time>2014-03-27T13:43:53Z</time>
      </trkpt>
      <trkpt lat="44.79532" lon="6.94798">
        <ele>2096.29</ele>
        <time>2014-03-27T13:44:08Z</time>
      </trkpt>
      <trkpt lat="44.79532" lon="6.94809">
        <ele>2098.21</ele>
        <time>2014-03-27T13:44:20Z</time>
      </trkpt>
      <trkpt lat="44.79535" lon="6.94818">
        <ele>2100.62</ele>
        <time>2014-03-27T13:44:35Z</time>
      </trkpt>
      <trkpt lat="44.79532" lon="6.94825">
        <ele>2103.5</ele>
        <time>2014-03-27T13:44:49Z</time>
      </trkpt>
      <trkpt lat="44.79535" lon="6.94837">
        <ele>2105.91</ele>
        <time>2014-03-27T13:45:04Z</time>
      </trkpt>
      <trkpt lat="44.79532" lon="6.94845">
        <ele>2109.27</ele>
        <time>2014-03-27T13:45:19Z</time>
      </trkpt>
      <trkpt lat="44.79532" lon="6.94846">
        <ele>2109.27</ele>
        <time>2014-03-27T13:45:20Z</time>
      </trkpt>
      <trkpt lat="44.79534" lon="6.94857">
        <ele>2111.19</ele>
        <time>2014-03-27T13:45:32Z</time>
      </trkpt>
      <trkpt lat="44.79534" lon="6.94862">
        <ele>2113.6</ele>
        <time>2014-03-27T13:45:46Z</time>
      </trkpt>
      <trkpt lat="44.79533" lon="6.94874">
        <ele>2116.96</ele>
        <time>2014-03-27T13:46:02Z</time>
      </trkpt>
      <trkpt lat="44.79536" lon="6.94883">
        <ele>2118.88</ele>
        <time>2014-03-27T13:46:16Z</time>
      </trkpt>
      <trkpt lat="44.79534" lon="6.94891">
        <ele>2122.25</ele>
        <time>2014-03-27T13:46:30Z</time>
      </trkpt>
      <trkpt lat="44.79535" lon="6.94906">
        <ele>2125.13</ele>
        <time>2014-03-27T13:46:48Z</time>
      </trkpt>
      <trkpt lat="44.79535" lon="6.94911">
        <ele>2126.09</ele>
        <time>2014-03-27T13:47:01Z</time>
      </trkpt>
      <trkpt lat="44.79537" lon="6.94916">
        <ele>2127.05</ele>
        <time>2014-03-27T13:47:18Z</time>
      </trkpt>
      <trkpt lat="44.79539" lon="6.94934">
        <ele>2129.46</ele>
        <time>2014-03-27T13:47:36Z</time>
      </trkpt>
      <trkpt lat="44.79539" lon="6.94943">
        <ele>2130.9</ele>
        <time>2014-03-27T13:47:48Z</time>
      </trkpt>
      <trkpt lat="44.7954" lon="6.94948">
        <ele>2131.38</ele>
        <time>2014-03-27T13:47:52Z</time>
      </trkpt>
      <trkpt lat="44.79542" lon="6.94966">
        <ele>2133.78</ele>
        <time>2014-03-27T13:48:09Z</time>
      </trkpt>
      <trkpt lat="44.79542" lon="6.94982">
        <ele>2136.67</ele>
        <time>2014-03-27T13:48:26Z</time>
      </trkpt>
      <trkpt lat="44.79541" lon="6.94997">
        <ele>2139.55</ele>
        <time>2014-03-27T13:48:41Z</time>
      </trkpt>
      <trkpt lat="44.79542" lon="6.9501">
        <ele>2141.47</ele>
        <time>2014-03-27T13:48:56Z</time>
      </trkpt>
      <trkpt lat="44.79541" lon="6.95023">
        <ele>2143.88</ele>
        <time>2014-03-27T13:49:11Z</time>
      </trkpt>
      <trkpt lat="44.79542" lon="6.95041">
        <ele>2146.76</ele>
        <time>2014-03-27T13:49:29Z</time>
      </trkpt>
      <trkpt lat="44.79541" lon="6.95054">
        <ele>2148.68</ele>
        <time>2014-03-27T13:49:45Z</time>
      </trkpt>
      <trkpt lat="44.79541" lon="6.95063">
        <ele>2150.13</ele>
        <time>2014-03-27T13:49:58Z</time>
      </trkpt>
      <trkpt lat="44.7954" lon="6.95067">
        <ele>2150.61</ele>
        <time>2014-03-27T13:50:03Z</time>
      </trkpt>
      <trkpt lat="44.79536" lon="6.95085">
        <ele>2153.01</ele>
        <time>2014-03-27T13:50:21Z</time>
      </trkpt>
      <trkpt lat="44.79534" lon="6.95099">
        <ele>2154.93</ele>
        <time>2014-03-27T13:50:35Z</time>
      </trkpt>
      <trkpt lat="44.79534" lon="6.95118">
        <ele>2157.34</ele>
        <time>2014-03-27T13:50:51Z</time>
      </trkpt>
      <trkpt lat="44.79537" lon="6.95129">
        <ele>2160.7</ele>
        <time>2014-03-27T13:51:05Z</time>
      </trkpt>
      <trkpt lat="44.7954" lon="6.95141">
        <ele>2162.62</ele>
        <time>2014-03-27T13:51:19Z</time>
      </trkpt>
      <trkpt lat="44.79543" lon="6.95152">
        <ele>2165.99</ele>
        <time>2014-03-27T13:51:32Z</time>
      </trkpt>
      <trkpt lat="44.79546" lon="6.95163">
        <ele>2168.87</ele>
        <time>2014-03-27T13:51:48Z</time>
      </trkpt>
      <trkpt lat="44.79551" lon="6.95172">
        <ele>2171.27</ele>
        <time>2014-03-27T13:52:02Z</time>
      </trkpt>
      <trkpt lat="44.79551" lon="6.95181">
        <ele>2174.64</ele>
        <time>2014-03-27T13:52:16Z</time>
      </trkpt>
      <trkpt lat="44.79553" lon="6.9519">
        <ele>2176.56</ele>
        <time>2014-03-27T13:52:28Z</time>
      </trkpt>
      <trkpt lat="44.7956" lon="6.95194">
        <ele>2178.97</ele>
        <time>2014-03-27T13:52:44Z</time>
      </trkpt>
      <trkpt lat="44.79569" lon="6.95197">
        <ele>2181.85</ele>
        <time>2014-03-27T13:53:00Z</time>
      </trkpt>
      <trkpt lat="44.79578" lon="6.95198">
        <ele>2184.73</ele>
        <time>2014-03-27T13:53:15Z</time>
      </trkpt>
      <trkpt lat="44.79587" lon="6.952">
        <ele>2187.62</ele>
        <time>2014-03-27T13:53:31Z</time>
      </trkpt>
      <trkpt lat="44.7959" lon="6.95206">
        <ele>2190.02</ele>
        <time>2014-03-27T13:53:45Z</time>
      </trkpt>
      <trkpt lat="44.79589" lon="6.95213">
        <ele>2192.42</ele>
        <time>2014-03-27T13:53:59Z</time>
      </trkpt>
      <trkpt lat="44.79589" lon="6.9522">
        <ele>2193.87</ele>
        <time>2014-03-27T13:54:20Z</time>
      </trkpt>
      <trkpt lat="44.79588" lon="6.95228">
        <ele>2194.83</ele>
        <time>2014-03-27T13:54:37Z</time>
      </trkpt>
      <trkpt lat="44.79582" lon="6.95234">
        <ele>2196.27</ele>
        <time>2014-03-27T13:54:49Z</time>
      </trkpt>
      <trkpt lat="44.79575" lon="6.95246">
        <ele>2197.71</ele>
        <time>2014-03-27T13:55:05Z</time>
      </trkpt>
      <trkpt lat="44.79574" lon="6.95258">
        <ele>2200.11</ele>
        <time>2014-03-27T13:55:17Z</time>
      </trkpt>
      <trkpt lat="44.79573" lon="6.95272">
        <ele>2202.04</ele>
        <time>2014-03-27T13:55:31Z</time>
      </trkpt>
      <trkpt lat="44.79572" lon="6.9528">
        <ele>2204.92</ele>
        <time>2014-03-27T13:55:46Z</time>
      </trkpt>
      <trkpt lat="44.79571" lon="6.95289">
        <ele>2206.84</ele>
        <time>2014-03-27T13:56:00Z</time>
      </trkpt>
      <trkpt lat="44.79572" lon="6.95296">
        <ele>2209.25</ele>
        <time>2014-03-27T13:56:14Z</time>
      </trkpt>
      <trkpt lat="44.79573" lon="6.95309">
        <ele>2211.65</ele>
        <time>2014-03-27T13:56:27Z</time>
      </trkpt>
      <trkpt lat="44.79571" lon="6.95315">
        <ele>2214.53</ele>
        <time>2014-03-27T13:56:40Z</time>
      </trkpt>
      <trkpt lat="44.79569" lon="6.95328">
        <ele>2217.42</ele>
        <time>2014-03-27T13:56:56Z</time>
      </trkpt>
      <trkpt lat="44.79568" lon="6.95343">
        <ele>2219.82</ele>
        <time>2014-03-27T13:57:10Z</time>
      </trkpt>
      <trkpt lat="44.79566" lon="6.95352">
        <ele>2222.22</ele>
        <time>2014-03-27T13:57:24Z</time>
      </trkpt>
      <trkpt lat="44.79565" lon="6.95365">
        <ele>2225.11</ele>
        <time>2014-03-27T13:57:37Z</time>
      </trkpt>
      <trkpt lat="44.79564" lon="6.95377">
        <ele>2227.03</ele>
        <time>2014-03-27T13:57:51Z</time>
      </trkpt>
      <trkpt lat="44.79563" lon="6.95389">
        <ele>2230.4</ele>
        <time>2014-03-27T13:58:06Z</time>
      </trkpt>
      <trkpt lat="44.79564" lon="6.95401">
        <ele>2233.28</ele>
        <time>2014-03-27T13:58:21Z</time>
      </trkpt>
      <trkpt lat="44.79565" lon="6.95412">
        <ele>2236.16</ele>
        <time>2014-03-27T13:58:36Z</time>
      </trkpt>
      <trkpt lat="44.7957" lon="6.95419">
        <ele>2238.57</ele>
        <time>2014-03-27T13:58:50Z</time>
      </trkpt>
      <trkpt lat="44.79575" lon="6.95419">
        <ele>2240.97</ele>
        <time>2014-03-27T13:59:02Z</time>
      </trkpt>
      <trkpt lat="44.79582" lon="6.95423">
        <ele>2243.37</ele>
        <time>2014-03-27T13:59:15Z</time>
      </trkpt>
      <trkpt lat="44.79589" lon="6.95425">
        <ele>2245.78</ele>
        <time>2014-03-27T13:59:29Z</time>
      </trkpt>
      <trkpt lat="44.79595" lon="6.95424">
        <ele>2248.66</ele>
        <time>2014-03-27T13:59:43Z</time>
      </trkpt>
      <trkpt lat="44.796" lon="6.95424">
        <ele>2252.03</ele>
        <time>2014-03-27T13:59:57Z</time>
      </trkpt>
      <trkpt lat="44.79605" lon="6.95428">
        <ele>2253.95</ele>
        <time>2014-03-27T14:00:10Z</time>
      </trkpt>
      <trkpt lat="44.79609" lon="6.95431">
        <ele>2255.87</ele>
        <time>2014-03-27T14:00:22Z</time>
      </trkpt>
      <trkpt lat="44.79609" lon="6.95441">
        <ele>2257.79</ele>
        <time>2014-03-27T14:00:35Z</time>
      </trkpt>
      <trkpt lat="44.79609" lon="6.9545">
        <ele>2260.68</ele>
        <time>2014-03-27T14:00:49Z</time>
      </trkpt>
      <trkpt lat="44.79609" lon="6.9545">
        <ele>2260.68</ele>
        <time>2014-03-27T14:01:03Z</time>
      </trkpt>
      <trkpt lat="44.79609" lon="6.95451">
        <ele>2260.68</ele>
        <time>2014-03-27T14:01:25Z</time>
      </trkpt>
      <trkpt lat="44.79609" lon="6.95457">
        <ele>2262.6</ele>
        <time>2014-03-27T14:01:38Z</time>
      </trkpt>
      <trkpt lat="44.79612" lon="6.95472">
        <ele>2265.96</ele>
        <time>2014-03-27T14:01:54Z</time>
      </trkpt>
      <trkpt lat="44.79615" lon="6.95484">
        <ele>2268.37</ele>
        <time>2014-03-27T14:02:09Z</time>
      </trkpt>
      <trkpt lat="44.79619" lon="6.95497">
        <ele>2269.81</ele>
        <time>2014-03-27T14:02:22Z</time>
      </trkpt>
      <trkpt lat="44.79619" lon="6.95505">
        <ele>2273.17</ele>
        <time>2014-03-27T14:02:35Z</time>
      </trkpt>
      <trkpt lat="44.7962" lon="6.95516">
        <ele>2275.58</ele>
        <time>2014-03-27T14:02:50Z</time>
      </trkpt>
      <trkpt lat="44.79622" lon="6.95525">
        <ele>2278.46</ele>
        <time>2014-03-27T14:03:03Z</time>
      </trkpt>
      <trkpt lat="44.79623" lon="6.95536">
        <ele>2280.38</ele>
        <time>2014-03-27T14:03:18Z</time>
      </trkpt>
      <trkpt lat="44.79621" lon="6.95548">
        <ele>2282.79</ele>
        <time>2014-03-27T14:03:32Z</time>
      </trkpt>
      <trkpt lat="44.79617" lon="6.95558">
        <ele>2286.15</ele>
        <time>2014-03-27T14:03:48Z</time>
      </trkpt>
      <trkpt lat="44.79613" lon="6.95568">
        <ele>2288.56</ele>
        <time>2014-03-27T14:04:03Z</time>
      </trkpt>
      <trkpt lat="44.79613" lon="6.95579">
        <ele>2291.44</ele>
        <time>2014-03-27T14:04:18Z</time>
      </trkpt>
      <trkpt lat="44.79614" lon="6.95583">
        <ele>2292.4</ele>
        <time>2014-03-27T14:04:24Z</time>
      </trkpt>
      <trkpt lat="44.79618" lon="6.95593">
        <ele>2295.28</ele>
        <time>2014-03-27T14:04:39Z</time>
      </trkpt>
      <trkpt lat="44.79617" lon="6.956">
        <ele>2296.73</ele>
        <time>2014-03-27T14:04:54Z</time>
      </trkpt>
      <trkpt lat="44.79618" lon="6.95605">
        <ele>2298.17</ele>
        <time>2014-03-27T14:05:07Z</time>
      </trkpt>
      <trkpt lat="44.79617" lon="6.95615">
        <ele>2300.57</ele>
        <time>2014-03-27T14:05:20Z</time>
      </trkpt>
      <trkpt lat="44.79618" lon="6.95625">
        <ele>2303.46</ele>
        <time>2014-03-27T14:05:34Z</time>
      </trkpt>
      <trkpt lat="44.79622" lon="6.95629">
        <ele>2305.86</ele>
        <time>2014-03-27T14:05:49Z</time>
      </trkpt>
      <trkpt lat="44.79625" lon="6.95633">
        <ele>2307.3</ele>
        <time>2014-03-27T14:06:00Z</time>
      </trkpt>
      <trkpt lat="44.79625" lon="6.95642">
        <ele>2310.67</ele>
        <time>2014-03-27T14:06:14Z</time>
      </trkpt>
      <trkpt lat="44.79622" lon="6.95657">
        <ele>2313.55</ele>
        <time>2014-03-27T14:06:35Z</time>
      </trkpt>
      <trkpt lat="44.79619" lon="6.9567">
        <ele>2316.43</ele>
        <time>2014-03-27T14:06:49Z</time>
      </trkpt>
      <trkpt lat="44.7962" lon="6.95684">
        <ele>2318.84</ele>
        <time>2014-03-27T14:07:06Z</time>
      </trkpt>
      <trkpt lat="44.79627" lon="6.95694">
        <ele>2320.76</ele>
        <time>2014-03-27T14:07:19Z</time>
      </trkpt>
      <trkpt lat="44.79633" lon="6.95699">
        <ele>2324.12</ele>
        <time>2014-03-27T14:07:34Z</time>
      </trkpt>
      <trkpt lat="44.79636" lon="6.9571">
        <ele>2327.01</ele>
        <time>2014-03-27T14:07:51Z</time>
      </trkpt>
      <trkpt lat="44.7964" lon="6.95719">
        <ele>2330.37</ele>
        <time>2014-03-27T14:08:06Z</time>
      </trkpt>
      <trkpt lat="44.79642" lon="6.95726">
        <ele>2333.26</ele>
        <time>2014-03-27T14:08:21Z</time>
      </trkpt>
      <trkpt lat="44.79646" lon="6.95734">
        <ele>2335.66</ele>
        <time>2014-03-27T14:08:34Z</time>
      </trkpt>
      <trkpt lat="44.7965" lon="6.9574">
        <ele>2337.58</ele>
        <time>2014-03-27T14:08:47Z</time>
      </trkpt>
      <trkpt lat="44.79652" lon="6.9575">
        <ele>2340.47</ele>
        <time>2014-03-27T14:09:02Z</time>
      </trkpt>
      <trkpt lat="44.79655" lon="6.95758">
        <ele>2343.83</ele>
        <time>2014-03-27T14:09:17Z</time>
      </trkpt>
      <trkpt lat="44.79658" lon="6.95767">
        <ele>2347.2</ele>
        <time>2014-03-27T14:09:31Z</time>
      </trkpt>
      <trkpt lat="44.7966" lon="6.95777">
        <ele>2349.12</ele>
        <time>2014-03-27T14:09:47Z</time>
      </trkpt>
      <trkpt lat="44.7966" lon="6.95785">
        <ele>2352.48</ele>
        <time>2014-03-27T14:10:00Z</time>
      </trkpt>
      <trkpt lat="44.79661" lon="6.95795">
        <ele>2354.89</ele>
        <time>2014-03-27T14:10:13Z</time>
      </trkpt>
      <trkpt lat="44.79662" lon="6.95806">
        <ele>2357.29</ele>
        <time>2014-03-27T14:10:28Z</time>
      </trkpt>
      <trkpt lat="44.79664" lon="6.95816">
        <ele>2359.21</ele>
        <time>2014-03-27T14:10:39Z</time>
      </trkpt>
      <trkpt lat="44.79665" lon="6.9582">
        <ele>2361.14</ele>
        <time>2014-03-27T14:10:53Z</time>
      </trkpt>
      <trkpt lat="44.79671" lon="6.95817">
        <ele>2364.5</ele>
        <time>2014-03-27T14:11:07Z</time>
      </trkpt>
      <trkpt lat="44.79676" lon="6.95813">
        <ele>2366.9</ele>
        <time>2014-03-27T14:11:21Z</time>
      </trkpt>
      <trkpt lat="44.79682" lon="6.95812">
        <ele>2369.31</ele>
        <time>2014-03-27T14:11:33Z</time>
      </trkpt>
      <trkpt lat="44.79688" lon="6.95811">
        <ele>2371.71</ele>
        <time>2014-03-27T14:11:47Z</time>
      </trkpt>
      <trkpt lat="44.79695" lon="6.9581">
        <ele>2373.63</ele>
        <time>2014-03-27T14:12:00Z</time>
      </trkpt>
      <trkpt lat="44.797" lon="6.95812">
        <ele>2376.52</ele>
        <time>2014-03-27T14:12:13Z</time>
      </trkpt>
      <trkpt lat="44.79702" lon="6.95821">
        <ele>2378.92</ele>
        <time>2014-03-27T14:12:26Z</time>
      </trkpt>
      <trkpt lat="44.79706" lon="6.9582">
        <ele>2380.84</ele>
        <time>2014-03-27T14:12:39Z</time>
      </trkpt>
      <trkpt lat="44.79713" lon="6.95818">
        <ele>2383.73</ele>
        <time>2014-03-27T14:12:53Z</time>
      </trkpt>
      <trkpt lat="44.79718" lon="6.95816">
        <ele>2386.13</ele>
        <time>2014-03-27T14:13:07Z</time>
      </trkpt>
      <trkpt lat="44.79719" lon="6.95822">
        <ele>2387.57</ele>
        <time>2014-03-27T14:13:20Z</time>
      </trkpt>
      <trkpt lat="44.79718" lon="6.95831">
        <ele>2390.46</ele>
        <time>2014-03-27T14:13:34Z</time>
      </trkpt>
      <trkpt lat="44.79718" lon="6.9584">
        <ele>2393.34</ele>
        <time>2014-03-27T14:13:48Z</time>
      </trkpt>
      <trkpt lat="44.79717" lon="6.95848">
        <ele>2395.26</ele>
        <time>2014-03-27T14:14:00Z</time>
      </trkpt>
      <trkpt lat="44.79716" lon="6.95857">
        <ele>2398.15</ele>
        <time>2014-03-27T14:14:13Z</time>
      </trkpt>
      <trkpt lat="44.79715" lon="6.95868">
        <ele>2400.07</ele>
        <time>2014-03-27T14:14:26Z</time>
      </trkpt>
      <trkpt lat="44.79715" lon="6.95871">
        <ele>2400.55</ele>
        <time>2014-03-27T14:14:29Z</time>
      </trkpt>
      <trkpt lat="44.79716" lon="6.95884">
        <ele>2402.95</ele>
        <time>2014-03-27T14:14:46Z</time>
      </trkpt>
      <trkpt lat="44.79717" lon="6.95902">
        <ele>2405.36</ele>
        <time>2014-03-27T14:15:02Z</time>
      </trkpt>
      <trkpt lat="44.79717" lon="6.95906">
        <ele>2406.32</ele>
        <time>2014-03-27T14:15:07Z</time>
      </trkpt>
      <trkpt lat="44.79719" lon="6.9592">
        <ele>2407.76</ele>
        <time>2014-03-27T14:15:22Z</time>
      </trkpt>
      <trkpt lat="44.79724" lon="6.95926">
        <ele>2409.68</ele>
        <time>2014-03-27T14:15:33Z</time>
      </trkpt>
      <trkpt lat="44.79731" lon="6.95924">
        <ele>2411.12</ele>
        <time>2014-03-27T14:15:47Z</time>
      </trkpt>
      <trkpt lat="44.79732" lon="6.95925">
        <ele>2411.6</ele>
        <time>2014-03-27T14:15:48Z</time>
      </trkpt>
      <trkpt lat="44.79738" lon="6.95926">
        <ele>2412.57</ele>
        <time>2014-03-27T14:16:01Z</time>
      </trkpt>
      <trkpt lat="44.79739" lon="6.95921">
        <ele>2414.49</ele>
        <time>2014-03-27T14:16:12Z</time>
      </trkpt>
      <trkpt lat="44.79739" lon="6.95917">
        <ele>2416.41</ele>
        <time>2014-03-27T14:16:24Z</time>
      </trkpt>
      <trkpt lat="44.79744" lon="6.95918">
        <ele>2417.85</ele>
        <time>2014-03-27T14:16:36Z</time>
      </trkpt>
      <trkpt lat="44.79745" lon="6.95917">
        <ele>2418.33</ele>
        <time>2014-03-27T14:16:37Z</time>
      </trkpt>
      <trkpt lat="44.79746" lon="6.9591">
        <ele>2420.74</ele>
        <time>2014-03-27T14:16:50Z</time>
      </trkpt>
      <trkpt lat="44.79749" lon="6.95913">
        <ele>2421.7</ele>
        <time>2014-03-27T14:17:02Z</time>
      </trkpt>
      <trkpt lat="44.79754" lon="6.95907">
        <ele>2423.62</ele>
        <time>2014-03-27T14:17:18Z</time>
      </trkpt>
      <trkpt lat="44.7976" lon="6.95897">
        <ele>2426.99</ele>
        <time>2014-03-27T14:17:33Z</time>
      </trkpt>
      <trkpt lat="44.79764" lon="6.95893">
        <ele>2427.47</ele>
        <time>2014-03-27T14:17:43Z</time>
      </trkpt>
      <trkpt lat="44.79768" lon="6.95894">
        <ele>2430.35</ele>
        <time>2014-03-27T14:17:58Z</time>
      </trkpt>
      <trkpt lat="44.79779" lon="6.95897">
        <ele>2432.27</ele>
        <time>2014-03-27T14:18:13Z</time>
      </trkpt>
      <trkpt lat="44.79783" lon="6.95899">
        <ele>2433.71</ele>
        <time>2014-03-27T14:18:29Z</time>
      </trkpt>
      <trkpt lat="44.79795" lon="6.95903">
        <ele>2437.08</ele>
        <time>2014-03-27T14:18:45Z</time>
      </trkpt>
      <trkpt lat="44.79799" lon="6.95899">
        <ele>2438.52</ele>
        <time>2014-03-27T14:18:55Z</time>
      </trkpt>
      <trkpt lat="44.79802" lon="6.95891">
        <ele>2441.41</ele>
        <time>2014-03-27T14:19:06Z</time>
      </trkpt>
      <trkpt lat="44.79802" lon="6.95885">
        <ele>2443.81</ele>
        <time>2014-03-27T14:19:21Z</time>
      </trkpt>
      <trkpt lat="44.79803" lon="6.95883">
        <ele>2444.77</ele>
        <time>2014-03-27T14:19:31Z</time>
      </trkpt>
      <trkpt lat="44.79807" lon="6.9589">
        <ele>2446.21</ele>
        <time>2014-03-27T14:19:43Z</time>
      </trkpt>
      <trkpt lat="44.79814" lon="6.95896">
        <ele>2448.62</ele>
        <time>2014-03-27T14:19:58Z</time>
      </trkpt>
      <trkpt lat="44.79818" lon="6.95899">
        <ele>2449.58</ele>
        <time>2014-03-27T14:20:08Z</time>
      </trkpt>
      <trkpt lat="44.7982" lon="6.95902">
        <ele>2450.06</ele>
        <time>2014-03-27T14:20:14Z</time>
      </trkpt>
      <trkpt lat="44.79822" lon="6.95898">
        <ele>2451.02</ele>
        <time>2014-03-27T14:20:25Z</time>
      </trkpt>
      <trkpt lat="44.79822" lon="6.95887">
        <ele>2452.94</ele>
        <time>2014-03-27T14:20:38Z</time>
      </trkpt>
      <trkpt lat="44.79822" lon="6.95884">
        <ele>2454.38</ele>
        <time>2014-03-27T14:20:43Z</time>
      </trkpt>
      <trkpt lat="44.79825" lon="6.95889">
        <ele>2455.82</ele>
        <time>2014-03-27T14:20:54Z</time>
      </trkpt>
      <trkpt lat="44.7983" lon="6.95897">
        <ele>2457.75</ele>
        <time>2014-03-27T14:21:07Z</time>
      </trkpt>
      <trkpt lat="44.79834" lon="6.95897">
        <ele>2458.71</ele>
        <time>2014-03-27T14:21:19Z</time>
      </trkpt>
      <trkpt lat="44.79836" lon="6.95883">
        <ele>2462.55</ele>
        <time>2014-03-27T14:21:36Z</time>
      </trkpt>
      <trkpt lat="44.79839" lon="6.95874">
        <ele>2464.96</ele>
        <time>2014-03-27T14:21:50Z</time>
      </trkpt>
      <trkpt lat="44.79842" lon="6.95869">
        <ele>2465.92</ele>
        <time>2014-03-27T14:22:02Z</time>
      </trkpt>
      <trkpt lat="44.79842" lon="6.95875">
        <ele>2467.36</ele>
        <time>2014-03-27T14:22:14Z</time>
      </trkpt>
      <trkpt lat="44.79846" lon="6.95879">
        <ele>2468.8</ele>
        <time>2014-03-27T14:22:26Z</time>
      </trkpt>
      <trkpt lat="44.79851" lon="6.9588">
        <ele>2470.24</ele>
        <time>2014-03-27T14:22:40Z</time>
      </trkpt>
      <trkpt lat="44.79855" lon="6.95874">
        <ele>2472.17</ele>
        <time>2014-03-27T14:22:55Z</time>
      </trkpt>
      <trkpt lat="44.79859" lon="6.95872">
        <ele>2473.61</ele>
        <time>2014-03-27T14:23:12Z</time>
      </trkpt>
      <trkpt lat="44.79861" lon="6.95874">
        <ele>2473.61</ele>
        <time>2014-03-27T14:23:15Z</time>
      </trkpt>
      <trkpt lat="44.79865" lon="6.95879">
        <ele>2475.53</ele>
        <time>2014-03-27T14:23:27Z</time>
      </trkpt>
      <trkpt lat="44.79871" lon="6.95879">
        <ele>2478.42</ele>
        <time>2014-03-27T14:23:42Z</time>
      </trkpt>
      <trkpt lat="44.79878" lon="6.95876">
        <ele>2479.38</ele>
        <time>2014-03-27T14:23:55Z</time>
      </trkpt>
      <trkpt lat="44.79879" lon="6.95875">
        <ele>2479.86</ele>
        <time>2014-03-27T14:23:57Z</time>
      </trkpt>
      <trkpt lat="44.79888" lon="6.95872">
        <ele>2481.3</ele>
        <time>2014-03-27T14:24:12Z</time>
      </trkpt>
      <trkpt lat="44.79897" lon="6.95874">
        <ele>2482.74</ele>
        <time>2014-03-27T14:24:25Z</time>
      </trkpt>
      <trkpt lat="44.79901" lon="6.95875">
        <ele>2483.7</ele>
        <time>2014-03-27T14:24:35Z</time>
      </trkpt>
      <trkpt lat="44.79904" lon="6.95873">
        <ele>2483.7</ele>
        <time>2014-03-27T14:24:50Z</time>
      </trkpt>
      <trkpt lat="44.79904" lon="6.95874">
        <ele>2483.7</ele>
        <time>2014-03-27T14:25:18Z</time>
      </trkpt>
      <trkpt lat="44.79903" lon="6.95873">
        <ele>2483.22</ele>
        <time>2014-03-27T14:25:29Z</time>
      </trkpt>
      <trkpt lat="44.79891" lon="6.95871">
        <ele>2480.34</ele>
        <time>2014-03-27T14:25:36Z</time>
      </trkpt>
      <trkpt lat="44.79883" lon="6.95871">
        <ele>2479.38</ele>
        <time>2014-03-27T14:25:44Z</time>
      </trkpt>
      <trkpt lat="44.79876" lon="6.95879">
        <ele>2477.45</ele>
        <time>2014-03-27T14:25:57Z</time>
      </trkpt>
      <trkpt lat="44.79874" lon="6.95878">
        <ele>2477.45</ele>
        <time>2014-03-27T14:26:21Z</time>
      </trkpt>
      <trkpt lat="44.79873" lon="6.9588">
        <ele>2476.97</ele>
        <time>2014-03-27T14:26:37Z</time>
      </trkpt>
      <trkpt lat="44.79876" lon="6.95877">
        <ele>2477.94</ele>
        <time>2014-03-27T14:26:44Z</time>
      </trkpt>
      <trkpt lat="44.79888" lon="6.95872">
        <ele>2480.34</ele>
        <time>2014-03-27T14:27:04Z</time>
      </trkpt>
      <trkpt lat="44.7989" lon="6.95871">
        <ele>2480.82</ele>
        <time>2014-03-27T14:27:06Z</time>
      </trkpt>
      <trkpt lat="44.79894" lon="6.95863">
        <ele>2480.82</ele>
        <time>2014-03-27T14:27:15Z</time>
      </trkpt>
      <trkpt lat="44.79895" lon="6.95843">
        <ele>2479.86</ele>
        <time>2014-03-27T14:27:27Z</time>
      </trkpt>
      <trkpt lat="44.79895" lon="6.95831">
        <ele>2478.42</ele>
        <time>2014-03-27T14:27:33Z</time>
      </trkpt>
      <trkpt lat="44.79895" lon="6.9582">
        <ele>2477.45</ele>
        <time>2014-03-27T14:27:40Z</time>
      </trkpt>
      <trkpt lat="44.79897" lon="6.95795">
        <ele>2473.13</ele>
        <time>2014-03-27T14:27:56Z</time>
      </trkpt>
      <trkpt lat="44.79898" lon="6.95773">
        <ele>2469.76</ele>
        <time>2014-03-27T14:28:04Z</time>
      </trkpt>
      <trkpt lat="44.79898" lon="6.95764">
        <ele>2467.84</ele>
        <time>2014-03-27T14:28:13Z</time>
      </trkpt>
      <trkpt lat="44.79897" lon="6.95773">
        <ele>2467.84</ele>
        <time>2014-03-27T14:28:24Z</time>
      </trkpt>
      <trkpt lat="44.79897" lon="6.95777">
        <ele>2469.28</ele>
        <time>2014-03-27T14:28:27Z</time>
      </trkpt>
      <trkpt lat="44.79895" lon="6.95793">
        <ele>2472.17</ele>
        <time>2014-03-27T14:28:43Z</time>
      </trkpt>
      <trkpt lat="44.79895" lon="6.95803">
        <ele>2474.09</ele>
        <time>2014-03-27T14:28:56Z</time>
      </trkpt>
      <trkpt lat="44.79894" lon="6.95816">
        <ele>2475.53</ele>
        <time>2014-03-27T14:29:09Z</time>
      </trkpt>
      <trkpt lat="44.79894" lon="6.95818">
        <ele>2475.53</ele>
        <time>2014-03-27T14:29:11Z</time>
      </trkpt>
      <trkpt lat="44.79894" lon="6.95823">
        <ele>2476.49</ele>
        <time>2014-03-27T14:29:15Z</time>
      </trkpt>
      <trkpt lat="44.79893" lon="6.95836">
        <ele>2477.94</ele>
        <time>2014-03-27T14:29:29Z</time>
      </trkpt>
      <trkpt lat="44.79893" lon="6.95844">
        <ele>2479.86</ele>
        <time>2014-03-27T14:29:37Z</time>
      </trkpt>
      <trkpt lat="44.79893" lon="6.95849">
        <ele>2479.86</ele>
        <time>2014-03-27T14:29:41Z</time>
      </trkpt>
      <trkpt lat="44.79894" lon="6.95855">
        <ele>2479.86</ele>
        <time>2014-03-27T14:29:46Z</time>
      </trkpt>
      <trkpt lat="44.79897" lon="6.95869">
        <ele>2481.3</ele>
        <time>2014-03-27T14:30:01Z</time>
      </trkpt>
      <trkpt lat="44.799" lon="6.95873">
        <ele>2482.26</ele>
        <time>2014-03-27T14:30:15Z</time>
      </trkpt>
      <trkpt lat="44.79901" lon="6.95874">
        <ele>2482.26</ele>
        <time>2014-03-27T14:30:31Z</time>
      </trkpt>
      <trkpt lat="44.79901" lon="6.95874">
        <ele>2482.26</ele>
        <time>2014-03-27T14:30:47Z</time>
      </trkpt>
      <trkpt lat="44.79901" lon="6.95873">
        <ele>2482.74</ele>
        <time>2014-03-27T14:31:06Z</time>
      </trkpt>
      <trkpt lat="44.79902" lon="6.95873">
        <ele>2482.26</ele>
        <time>2014-03-27T14:31:17Z</time>
      </trkpt>
      <trkpt lat="44.79904" lon="6.95873">
        <ele>2482.26</ele>
        <time>2014-03-27T14:31:24Z</time>
      </trkpt>
      <trkpt lat="44.79898" lon="6.95872">
        <ele>2480.82</ele>
        <time>2014-03-27T14:31:28Z</time>
      </trkpt>
      <trkpt lat="44.79885" lon="6.95872">
        <ele>2477.94</ele>
        <time>2014-03-27T14:31:36Z</time>
      </trkpt>
      <trkpt lat="44.79876" lon="6.9588">
        <ele>2476.49</ele>
        <time>2014-03-27T14:31:50Z</time>
      </trkpt>
      <trkpt lat="44.79875" lon="6.95884">
        <ele>2475.53</ele>
        <time>2014-03-27T14:32:03Z</time>
      </trkpt>
      <trkpt lat="44.79873" lon="6.95881">
        <ele>2475.53</ele>
        <time>2014-03-27T14:32:13Z</time>
      </trkpt>
      <trkpt lat="44.79873" lon="6.95878">
        <ele>2475.53</ele>
        <time>2014-03-27T14:32:15Z</time>
      </trkpt>
      <trkpt lat="44.7987" lon="6.95873">
        <ele>2475.05</ele>
        <time>2014-03-27T14:32:19Z</time>
      </trkpt>
      <trkpt lat="44.79868" lon="6.95858">
        <ele>2471.69</ele>
        <time>2014-03-27T14:32:33Z</time>
      </trkpt>
      <trkpt lat="44.79868" lon="6.95858">
        <ele>2471.69</ele>
        <time>2014-03-27T14:32:48Z</time>
      </trkpt>
      <trkpt lat="44.79873" lon="6.95853">
        <ele>2473.61</ele>
        <time>2014-03-27T14:33:03Z</time>
      </trkpt>
      <trkpt lat="44.79878" lon="6.95856">
        <ele>2475.53</ele>
        <time>2014-03-27T14:33:16Z</time>
      </trkpt>
      <trkpt lat="44.79884" lon="6.95862">
        <ele>2476.97</ele>
        <time>2014-03-27T14:33:30Z</time>
      </trkpt>
      <trkpt lat="44.79888" lon="6.95865">
        <ele>2478.9</ele>
        <time>2014-03-27T14:33:41Z</time>
      </trkpt>
      <trkpt lat="44.79893" lon="6.95869">
        <ele>2479.38</ele>
        <time>2014-03-27T14:33:51Z</time>
      </trkpt>
      <trkpt lat="44.79899" lon="6.95874">
        <ele>2481.3</ele>
        <time>2014-03-27T14:34:03Z</time>
      </trkpt>
      <trkpt lat="44.79899" lon="6.95874">
        <ele>2481.3</ele>
        <time>2014-03-27T14:34:11Z</time>
      </trkpt>
      <trkpt lat="44.79899" lon="6.95874">
        <ele>2481.78</ele>
        <time>2014-03-27T14:34:26Z</time>
      </trkpt>
      <trkpt lat="44.799" lon="6.95873">
        <ele>2481.78</ele>
        <time>2014-03-27T14:34:37Z</time>
      </trkpt>
      <trkpt lat="44.79901" lon="6.95874">
        <ele>2481.78</ele>
        <time>2014-03-27T14:34:59Z</time>
      </trkpt>
      <trkpt lat="44.79903" lon="6.95874">
        <ele>2481.78</ele>
        <time>2014-03-27T14:35:13Z</time>
      </trkpt>
      <trkpt lat="44.79902" lon="6.95876">
        <ele>2481.78</ele>
        <time>2014-03-27T14:35:24Z</time>
      </trkpt>
      <trkpt lat="44.79904" lon="6.95874">
        <ele>2481.3</ele>
        <time>2014-03-27T14:35:34Z</time>
      </trkpt>
      <trkpt lat="44.79906" lon="6.95873">
        <ele>2480.34</ele>
        <time>2014-03-27T14:35:39Z</time>
      </trkpt>
      <trkpt lat="44.79908" lon="6.95872">
        <ele>2480.34</ele>
        <time>2014-03-27T14:36:02Z</time>
      </trkpt>
      <trkpt lat="44.79904" lon="6.95872">
        <ele>2480.34</ele>
        <time>2014-03-27T14:36:14Z</time>
      </trkpt>
      <trkpt lat="44.79904" lon="6.95872">
        <ele>2480.34</ele>
        <time>2014-03-27T14:36:35Z</time>
      </trkpt>
      <trkpt lat="44.79901" lon="6.95872">
        <ele>2479.86</ele>
        <time>2014-03-27T14:36:49Z</time>
      </trkpt>
      <trkpt lat="44.79902" lon="6.95873">
        <ele>2479.86</ele>
        <time>2014-03-27T14:37:21Z</time>
      </trkpt>
      <trkpt lat="44.79905" lon="6.95872">
        <ele>2480.82</ele>
        <time>2014-03-27T14:37:53Z</time>
      </trkpt>
      <trkpt lat="44.79905" lon="6.95871">
        <ele>2480.82</ele>
        <time>2014-03-27T14:37:59Z</time>
      </trkpt>
      <trkpt lat="44.79903" lon="6.95873">
        <ele>2480.82</ele>
        <time>2014-03-27T14:38:14Z</time>
      </trkpt>
      <trkpt lat="44.79902" lon="6.95873">
        <ele>2479.38</ele>
        <time>2014-03-27T14:38:28Z</time>
      </trkpt>
      <trkpt lat="44.79902" lon="6.95873">
        <ele>2482.74</ele>
        <time>2014-03-27T14:38:29Z</time>
      </trkpt>
      <trkpt lat="44.79901" lon="6.95873">
        <ele>2476.97</ele>
        <time>2014-03-27T14:38:30Z</time>
      </trkpt>
      <trkpt lat="44.79902" lon="6.95873">
        <ele>2476.97</ele>
        <time>2014-03-27T14:38:31Z</time>
      </trkpt>
      <trkpt lat="44.79902" lon="6.95873">
        <ele>2478.9</ele>
        <time>2014-03-27T14:38:33Z</time>
      </trkpt>
      <trkpt lat="44.799" lon="6.95875">
        <ele>2478.9</ele>
        <time>2014-03-27T14:39:26Z</time>
      </trkpt>
      <trkpt lat="44.79901" lon="6.95875">
        <ele>2478.9</ele>
        <time>2014-03-27T14:40:12Z</time>
      </trkpt>
      <trkpt lat="44.799" lon="6.95875">
        <ele>2478.9</ele>
        <time>2014-03-27T14:40:56Z</time>
      </trkpt>
      <trkpt lat="44.799" lon="6.95874">
        <ele>2477.45</ele>
        <time>2014-03-27T14:41:19Z</time>
      </trkpt>
      <trkpt lat="44.799" lon="6.95874">
        <ele>2472.65</ele>
        <time>2014-03-27T14:41:30Z</time>
      </trkpt>
      <trkpt lat="44.799" lon="6.95874">
        <ele>2477.45</ele>
        <time>2014-03-27T14:41:31Z</time>
      </trkpt>
      <trkpt lat="44.799" lon="6.95874">
        <ele>2479.86</ele>
        <time>2014-03-27T14:41:36Z</time>
      </trkpt>
      <trkpt lat="44.799" lon="6.95874">
        <ele>2478.42</ele>
        <time>2014-03-27T14:41:38Z</time>
      </trkpt>
      <trkpt lat="44.799" lon="6.95873">
        <ele>2477.45</ele>
        <time>2014-03-27T14:42:04Z</time>
      </trkpt>
      <trkpt lat="44.799" lon="6.95873">
        <ele>2474.09</ele>
        <time>2014-03-27T14:42:18Z</time>
      </trkpt>
      <trkpt lat="44.799" lon="6.95873">
        <ele>2477.94</ele>
        <time>2014-03-27T14:42:19Z</time>
      </trkpt>
      <trkpt lat="44.799" lon="6.95873">
        <ele>2479.86</ele>
        <time>2014-03-27T14:42:21Z</time>
      </trkpt>
      <trkpt lat="44.799" lon="6.95873">
        <ele>2478.42</ele>
        <time>2014-03-27T14:42:23Z</time>
      </trkpt>
      <trkpt lat="44.799" lon="6.95873">
        <ele>2477.94</ele>
        <time>2014-03-27T14:43:09Z</time>
      </trkpt>
      <trkpt lat="44.79899" lon="6.95874">
        <ele>2477.45</ele>
        <time>2014-03-27T14:44:00Z</time>
      </trkpt>
      <trkpt lat="44.79899" lon="6.95874">
        <ele>2477.45</ele>
        <time>2014-03-27T14:44:42Z</time>
      </trkpt>
      <trkpt lat="44.799" lon="6.95871">
        <ele>2477.45</ele>
        <time>2014-03-27T14:45:14Z</time>
      </trkpt>
      <trkpt lat="44.799" lon="6.95872">
        <ele>2478.9</ele>
        <time>2014-03-27T14:45:17Z</time>
      </trkpt>
      <trkpt lat="44.79902" lon="6.95872">
        <ele>2477.94</ele>
        <time>2014-03-27T14:45:40Z</time>
      </trkpt>
      <trkpt lat="44.79902" lon="6.95872">
        <ele>2477.94</ele>
        <time>2014-03-27T14:46:02Z</time>
      </trkpt>
      <trkpt lat="44.79902" lon="6.95871">
        <ele>2477.94</ele>
        <time>2014-03-27T14:46:24Z</time>
      </trkpt>
      <trkpt lat="44.79901" lon="6.95871">
        <ele>2477.45</ele>
        <time>2014-03-27T14:46:43Z</time>
      </trkpt>
      <trkpt lat="44.79902" lon="6.9587">
        <ele>2478.42</ele>
        <time>2014-03-27T14:46:57Z</time>
      </trkpt>
      <trkpt lat="44.79899" lon="6.95871">
        <ele>2478.42</ele>
        <time>2014-03-27T14:47:16Z</time>
      </trkpt>
      <trkpt lat="44.79901" lon="6.95872">
        <ele>2478.42</ele>
        <time>2014-03-27T14:47:38Z</time>
      </trkpt>
      <trkpt lat="44.79901" lon="6.95871">
        <ele>2478.42</ele>
        <time>2014-03-27T14:47:52Z</time>
      </trkpt>
      <trkpt lat="44.79901" lon="6.9587">
        <ele>2476.97</ele>
        <time>2014-03-27T14:48:16Z</time>
      </trkpt>
      <trkpt lat="44.79901" lon="6.9587">
        <ele>2476.97</ele>
        <time>2014-03-27T14:48:41Z</time>
      </trkpt>
      <trkpt lat="44.799" lon="6.9587">
        <ele>2476.97</ele>
        <time>2014-03-27T14:49:03Z</time>
      </trkpt>
      <trkpt lat="44.799" lon="6.95871">
        <ele>2476.49</ele>
        <time>2014-03-27T14:49:19Z</time>
      </trkpt>
      <trkpt lat="44.799" lon="6.95871">
        <ele>2476.49</ele>
        <time>2014-03-27T14:49:54Z</time>
      </trkpt>
      <trkpt lat="44.799" lon="6.95873">
        <ele>2476.49</ele>
        <time>2014-03-27T14:50:26Z</time>
      </trkpt>
      <trkpt lat="44.799" lon="6.95871">
        <ele>2476.49</ele>
        <time>2014-03-27T14:50:59Z</time>
      </trkpt>
      <trkpt lat="44.79901" lon="6.95871">
        <ele>2476.01</ele>
        <time>2014-03-27T14:51:28Z</time>
      </trkpt>
      <trkpt lat="44.79901" lon="6.95872">
        <ele>2475.53</ele>
        <time>2014-03-27T14:51:51Z</time>
      </trkpt>
      <trkpt lat="44.79901" lon="6.95872">
        <ele>2475.53</ele>
        <time>2014-03-27T14:52:10Z</time>
      </trkpt>
      <trkpt lat="44.79902" lon="6.95872">
        <ele>2475.53</ele>
        <time>2014-03-27T14:52:29Z</time>
      </trkpt>
      <trkpt lat="44.79901" lon="6.95872">
        <ele>2475.53</ele>
        <time>2014-03-27T14:52:31Z</time>
      </trkpt>
      <trkpt lat="44.79878" lon="6.95877">
        <ele>2472.65</ele>
        <time>2014-03-27T14:52:39Z</time>
      </trkpt>
      <trkpt lat="44.79872" lon="6.95885">
        <ele>2469.28</ele>
        <time>2014-03-27T14:52:45Z</time>
      </trkpt>
      <trkpt lat="44.79869" lon="6.95886">
        <ele>2468.8</ele>
        <time>2014-03-27T14:53:00Z</time>
      </trkpt>
      <trkpt lat="44.79868" lon="6.95884">
        <ele>2468.8</ele>
        <time>2014-03-27T14:53:03Z</time>
      </trkpt>
      <trkpt lat="44.79867" lon="6.95882">
        <ele>2468.32</ele>
        <time>2014-03-27T14:53:19Z</time>
      </trkpt>
      <trkpt lat="44.79863" lon="6.95869">
        <ele>2466.88</ele>
        <time>2014-03-27T14:53:31Z</time>
      </trkpt>
      <trkpt lat="44.79864" lon="6.9587">
        <ele>2466.88</ele>
        <time>2014-03-27T14:53:52Z</time>
      </trkpt>
      <trkpt lat="44.79863" lon="6.95869">
        <ele>2466.88</ele>
        <time>2014-03-27T14:54:23Z</time>
      </trkpt>
      <trkpt lat="44.79865" lon="6.95869">
        <ele>2466.88</ele>
        <time>2014-03-27T14:54:41Z</time>
      </trkpt>
      <trkpt lat="44.79865" lon="6.95869">
        <ele>2466.4</ele>
        <time>2014-03-27T14:55:11Z</time>
      </trkpt>
      <trkpt lat="44.79865" lon="6.95869">
        <ele>2466.4</ele>
        <time>2014-03-27T14:55:31Z</time>
      </trkpt>
      <trkpt lat="44.79865" lon="6.95871">
        <ele>2466.4</ele>
        <time>2014-03-27T14:55:56Z</time>
      </trkpt>
      <trkpt lat="44.79865" lon="6.95871">
        <ele>2466.4</ele>
        <time>2014-03-27T14:56:27Z</time>
      </trkpt>
      <trkpt lat="44.79865" lon="6.95872">
        <ele>2466.4</ele>
        <time>2014-03-27T14:56:34Z</time>
      </trkpt>
      <trkpt lat="44.79864" lon="6.9587">
        <ele>2466.4</ele>
        <time>2014-03-27T14:56:36Z</time>
      </trkpt>
      <trkpt lat="44.79865" lon="6.95843">
        <ele>2463.04</ele>
        <time>2014-03-27T14:56:51Z</time>
      </trkpt>
      <trkpt lat="44.79866" lon="6.95814">
        <ele>2459.67</ele>
        <time>2014-03-27T14:56:59Z</time>
      </trkpt>
      <trkpt lat="44.79867" lon="6.95792">
        <ele>2456.79</ele>
        <time>2014-03-27T14:57:03Z</time>
      </trkpt>
      <trkpt lat="44.79869" lon="6.95787">
        <ele>2455.82</ele>
        <time>2014-03-27T14:57:11Z</time>
      </trkpt>
      <trkpt lat="44.79868" lon="6.95784">
        <ele>2455.82</ele>
        <time>2014-03-27T14:57:26Z</time>
      </trkpt>
      <trkpt lat="44.79872" lon="6.95756">
        <ele>2451.98</ele>
        <time>2014-03-27T14:57:46Z</time>
      </trkpt>
      <trkpt lat="44.79876" lon="6.95736">
        <ele>2449.58</ele>
        <time>2014-03-27T14:57:49Z</time>
      </trkpt>
      <trkpt lat="44.79882" lon="6.95715">
        <ele>2444.77</ele>
        <time>2014-03-27T14:57:52Z</time>
      </trkpt>
      <trkpt lat="44.79888" lon="6.95705">
        <ele>2442.85</ele>
        <time>2014-03-27T14:57:55Z</time>
      </trkpt>
      <trkpt lat="44.79891" lon="6.95685">
        <ele>2437.56</ele>
        <time>2014-03-27T14:57:59Z</time>
      </trkpt>
      <trkpt lat="44.79893" lon="6.95672">
        <ele>2432.75</ele>
        <time>2014-03-27T14:58:01Z</time>
      </trkpt>
      <trkpt lat="44.79898" lon="6.95653">
        <ele>2428.91</ele>
        <time>2014-03-27T14:58:04Z</time>
      </trkpt>
      <trkpt lat="44.79903" lon="6.95632">
        <ele>2424.1</ele>
        <time>2014-03-27T14:58:07Z</time>
      </trkpt>
      <trkpt lat="44.79912" lon="6.95612">
        <ele>2418.81</ele>
        <time>2014-03-27T14:58:10Z</time>
      </trkpt>
      <trkpt lat="44.79915" lon="6.95604">
        <ele>2417.85</ele>
        <time>2014-03-27T14:58:11Z</time>
      </trkpt>
      <trkpt lat="44.79927" lon="6.95583">
        <ele>2411.12</ele>
        <time>2014-03-27T14:58:14Z</time>
      </trkpt>
      <trkpt lat="44.79928" lon="6.95563">
        <ele>2406.32</ele>
        <time>2014-03-27T14:58:17Z</time>
      </trkpt>
      <trkpt lat="44.79933" lon="6.95551">
        <ele>2402.95</ele>
        <time>2014-03-27T14:58:19Z</time>
      </trkpt>
      <trkpt lat="44.79941" lon="6.95542">
        <ele>2401.03</ele>
        <time>2014-03-27T14:58:21Z</time>
      </trkpt>
      <trkpt lat="44.79955" lon="6.9553">
        <ele>2399.11</ele>
        <time>2014-03-27T14:58:24Z</time>
      </trkpt>
      <trkpt lat="44.79962" lon="6.95524">
        <ele>2398.63</ele>
        <time>2014-03-27T14:58:26Z</time>
      </trkpt>
      <trkpt lat="44.79961" lon="6.955">
        <ele>2395.26</ele>
        <time>2014-03-27T14:58:33Z</time>
      </trkpt>
      <trkpt lat="44.79951" lon="6.95491">
        <ele>2392.86</ele>
        <time>2014-03-27T14:58:38Z</time>
      </trkpt>
      <trkpt lat="44.79937" lon="6.95487">
        <ele>2389.01</ele>
        <time>2014-03-27T14:58:42Z</time>
      </trkpt>
      <trkpt lat="44.79937" lon="6.95487">
        <ele>2388.53</ele>
        <time>2014-03-27T14:58:49Z</time>
      </trkpt>
      <trkpt lat="44.79937" lon="6.95486">
        <ele>2388.53</ele>
        <time>2014-03-27T14:58:54Z</time>
      </trkpt>
      <trkpt lat="44.79917" lon="6.95474">
        <ele>2384.69</ele>
        <time>2014-03-27T14:59:00Z</time>
      </trkpt>
      <trkpt lat="44.79916" lon="6.95459">
        <ele>2379.88</ele>
        <time>2014-03-27T14:59:03Z</time>
      </trkpt>
      <trkpt lat="44.79914" lon="6.95442">
        <ele>2376.04</ele>
        <time>2014-03-27T14:59:06Z</time>
      </trkpt>
      <trkpt lat="44.79915" lon="6.95426">
        <ele>2371.23</ele>
        <time>2014-03-27T14:59:08Z</time>
      </trkpt>
      <trkpt lat="44.79912" lon="6.95412">
        <ele>2366.9</ele>
        <time>2014-03-27T14:59:10Z</time>
      </trkpt>
      <trkpt lat="44.79911" lon="6.95397">
        <ele>2363.54</ele>
        <time>2014-03-27T14:59:12Z</time>
      </trkpt>
      <trkpt lat="44.79908" lon="6.95374">
        <ele>2357.77</ele>
        <time>2014-03-27T14:59:15Z</time>
      </trkpt>
      <trkpt lat="44.79902" lon="6.95352">
        <ele>2352</ele>
        <time>2014-03-27T14:59:19Z</time>
      </trkpt>
      <trkpt lat="44.79901" lon="6.9535">
        <ele>2349.12</ele>
        <time>2014-03-27T14:59:26Z</time>
      </trkpt>
      <trkpt lat="44.79901" lon="6.95349">
        <ele>2349.6</ele>
        <time>2014-03-27T14:59:48Z</time>
      </trkpt>
      <trkpt lat="44.79903" lon="6.95331">
        <ele>2346.23</ele>
        <time>2014-03-27T14:59:53Z</time>
      </trkpt>
      <trkpt lat="44.79905" lon="6.95313">
        <ele>2341.43</ele>
        <time>2014-03-27T14:59:56Z</time>
      </trkpt>
      <trkpt lat="44.79903" lon="6.95308">
        <ele>2338.54</ele>
        <time>2014-03-27T14:59:57Z</time>
      </trkpt>
      <trkpt lat="44.79902" lon="6.95286">
        <ele>2330.37</ele>
        <time>2014-03-27T15:00:00Z</time>
      </trkpt>
      <trkpt lat="44.79899" lon="6.95277">
        <ele>2326.05</ele>
        <time>2014-03-27T15:00:02Z</time>
      </trkpt>
      <trkpt lat="44.79894" lon="6.95264">
        <ele>2321.72</ele>
        <time>2014-03-27T15:00:05Z</time>
      </trkpt>
      <trkpt lat="44.79897" lon="6.95254">
        <ele>2317.4</ele>
        <time>2014-03-27T15:00:07Z</time>
      </trkpt>
      <trkpt lat="44.79894" lon="6.95242">
        <ele>2312.11</ele>
        <time>2014-03-27T15:00:09Z</time>
      </trkpt>
      <trkpt lat="44.79901" lon="6.95233">
        <ele>2309.22</ele>
        <time>2014-03-27T15:00:11Z</time>
      </trkpt>
      <trkpt lat="44.79907" lon="6.95215">
        <ele>2303.94</ele>
        <time>2014-03-27T15:00:14Z</time>
      </trkpt>
      <trkpt lat="44.79909" lon="6.95214">
        <ele>2303.46</ele>
        <time>2014-03-27T15:00:16Z</time>
      </trkpt>
      <trkpt lat="44.79908" lon="6.95215">
        <ele>2303.94</ele>
        <time>2014-03-27T15:00:26Z</time>
      </trkpt>
      <trkpt lat="44.79897" lon="6.95201">
        <ele>2299.61</ele>
        <time>2014-03-27T15:00:30Z</time>
      </trkpt>
      <trkpt lat="44.79897" lon="6.95186">
        <ele>2295.28</ele>
        <time>2014-03-27T15:00:32Z</time>
      </trkpt>
      <trkpt lat="44.79896" lon="6.95169">
        <ele>2291.44</ele>
        <time>2014-03-27T15:00:35Z</time>
      </trkpt>
      <trkpt lat="44.79894" lon="6.9516">
        <ele>2285.67</ele>
        <time>2014-03-27T15:00:37Z</time>
      </trkpt>
      <trkpt lat="44.79894" lon="6.9516">
        <ele>2280.87</ele>
        <time>2014-03-27T15:00:38Z</time>
      </trkpt>
      <trkpt lat="44.79894" lon="6.9516">
        <ele>2285.19</ele>
        <time>2014-03-27T15:00:39Z</time>
      </trkpt>
      <trkpt lat="44.79894" lon="6.95161">
        <ele>2284.71</ele>
        <time>2014-03-27T15:00:47Z</time>
      </trkpt>
      <trkpt lat="44.79894" lon="6.9516">
        <ele>2285.67</ele>
        <time>2014-03-27T15:00:59Z</time>
      </trkpt>
      <trkpt lat="44.79895" lon="6.9516">
        <ele>2285.67</ele>
        <time>2014-03-27T15:01:12Z</time>
      </trkpt>
      <trkpt lat="44.79895" lon="6.9516">
        <ele>2285.67</ele>
        <time>2014-03-27T15:01:20Z</time>
      </trkpt>
      <trkpt lat="44.79889" lon="6.95147">
        <ele>2281.83</ele>
        <time>2014-03-27T15:01:24Z</time>
      </trkpt>
      <trkpt lat="44.79887" lon="6.95134">
        <ele>2277.98</ele>
        <time>2014-03-27T15:01:26Z</time>
      </trkpt>
      <trkpt lat="44.79885" lon="6.95118">
        <ele>2274.62</ele>
        <time>2014-03-27T15:01:28Z</time>
      </trkpt>
      <trkpt lat="44.7987" lon="6.95095">
        <ele>2265.96</ele>
        <time>2014-03-27T15:01:32Z</time>
      </trkpt>
      <trkpt lat="44.79855" lon="6.95089">
        <ele>2263.08</ele>
        <time>2014-03-27T15:01:35Z</time>
      </trkpt>
      <trkpt lat="44.79853" lon="6.9509">
        <ele>2261.64</ele>
        <time>2014-03-27T15:01:37Z</time>
      </trkpt>
      <trkpt lat="44.79853" lon="6.9509">
        <ele>2262.6</ele>
        <time>2014-03-27T15:01:53Z</time>
      </trkpt>
      <trkpt lat="44.79852" lon="6.95089">
        <ele>2261.64</ele>
        <time>2014-03-27T15:02:07Z</time>
      </trkpt>
      <trkpt lat="44.79858" lon="6.95072">
        <ele>2258.75</ele>
        <time>2014-03-27T15:02:15Z</time>
      </trkpt>
      <trkpt lat="44.79861" lon="6.95068">
        <ele>2257.31</ele>
        <time>2014-03-27T15:02:16Z</time>
      </trkpt>
      <trkpt lat="44.7986" lon="6.95053">
        <ele>2252.99</ele>
        <time>2014-03-27T15:02:19Z</time>
      </trkpt>
      <trkpt lat="44.79861" lon="6.95041">
        <ele>2249.14</ele>
        <time>2014-03-27T15:02:21Z</time>
      </trkpt>
      <trkpt lat="44.79864" lon="6.95028">
        <ele>2244.82</ele>
        <time>2014-03-27T15:02:23Z</time>
      </trkpt>
      <trkpt lat="44.79871" lon="6.95019">
        <ele>2242.41</ele>
        <time>2014-03-27T15:02:25Z</time>
      </trkpt>
      <trkpt lat="44.79864" lon="6.9501">
        <ele>2237.61</ele>
        <time>2014-03-27T15:02:30Z</time>
      </trkpt>
      <trkpt lat="44.79863" lon="6.95011">
        <ele>2237.13</ele>
        <time>2014-03-27T15:02:31Z</time>
      </trkpt>
      <trkpt lat="44.79864" lon="6.9501">
        <ele>2237.61</ele>
        <time>2014-03-27T15:02:45Z</time>
      </trkpt>
      <trkpt lat="44.79864" lon="6.9501">
        <ele>2237.61</ele>
        <time>2014-03-27T15:02:50Z</time>
      </trkpt>
      <trkpt lat="44.79862" lon="6.95011">
        <ele>2237.61</ele>
        <time>2014-03-27T15:02:53Z</time>
      </trkpt>
      <trkpt lat="44.79835" lon="6.95011">
        <ele>2233.76</ele>
        <time>2014-03-27T15:03:05Z</time>
      </trkpt>
      <trkpt lat="44.79809" lon="6.95013">
        <ele>2230.4</ele>
        <time>2014-03-27T15:03:12Z</time>
      </trkpt>
      <trkpt lat="44.79794" lon="6.95016">
        <ele>2227.51</ele>
        <time>2014-03-27T15:03:15Z</time>
      </trkpt>
      <trkpt lat="44.79777" lon="6.95024">
        <ele>2223.67</ele>
        <time>2014-03-27T15:03:18Z</time>
      </trkpt>
      <trkpt lat="44.79768" lon="6.95029">
        <ele>2219.82</ele>
        <time>2014-03-27T15:03:20Z</time>
      </trkpt>
      <trkpt lat="44.79756" lon="6.95033">
        <ele>2216.46</ele>
        <time>2014-03-27T15:03:22Z</time>
      </trkpt>
      <trkpt lat="44.79743" lon="6.95038">
        <ele>2211.65</ele>
        <time>2014-03-27T15:03:24Z</time>
      </trkpt>
      <trkpt lat="44.79728" lon="6.95038">
        <ele>2208.29</ele>
        <time>2014-03-27T15:03:26Z</time>
      </trkpt>
      <trkpt lat="44.79692" lon="6.95046">
        <ele>2199.63</ele>
        <time>2014-03-27T15:03:31Z</time>
      </trkpt>
      <trkpt lat="44.79679" lon="6.95054">
        <ele>2196.75</ele>
        <time>2014-03-27T15:03:33Z</time>
      </trkpt>
      <trkpt lat="44.79674" lon="6.9506">
        <ele>2195.31</ele>
        <time>2014-03-27T15:03:34Z</time>
      </trkpt>
      <trkpt lat="44.79654" lon="6.95085">
        <ele>2190.5</ele>
        <time>2014-03-27T15:03:38Z</time>
      </trkpt>
      <trkpt lat="44.7964" lon="6.95114">
        <ele>2186.18</ele>
        <time>2014-03-27T15:03:44Z</time>
      </trkpt>
      <trkpt lat="44.79637" lon="6.95127">
        <ele>2184.73</ele>
        <time>2014-03-27T15:03:54Z</time>
      </trkpt>
      <trkpt lat="44.79634" lon="6.95134">
        <ele>2184.25</ele>
        <time>2014-03-27T15:03:58Z</time>
      </trkpt>
      <trkpt lat="44.79619" lon="6.95162">
        <ele>2180.89</ele>
        <time>2014-03-27T15:04:09Z</time>
      </trkpt>
      <trkpt lat="44.79619" lon="6.95161">
        <ele>2180.89</ele>
        <time>2014-03-27T15:04:24Z</time>
      </trkpt>
      <trkpt lat="44.79601" lon="6.95185">
        <ele>2178</ele>
        <time>2014-03-27T15:04:34Z</time>
      </trkpt>
      <trkpt lat="44.79586" lon="6.95196">
        <ele>2174.16</ele>
        <time>2014-03-27T15:04:37Z</time>
      </trkpt>
      <trkpt lat="44.79557" lon="6.95194">
        <ele>2167.43</ele>
        <time>2014-03-27T15:04:41Z</time>
      </trkpt>
      <trkpt lat="44.79543" lon="6.95184">
        <ele>2163.58</ele>
        <time>2014-03-27T15:04:43Z</time>
      </trkpt>
      <trkpt lat="44.79542" lon="6.95166">
        <ele>2159.74</ele>
        <time>2014-03-27T15:04:45Z</time>
      </trkpt>
      <trkpt lat="44.79544" lon="6.95145">
        <ele>2154.45</ele>
        <time>2014-03-27T15:04:47Z</time>
      </trkpt>
      <trkpt lat="44.79543" lon="6.95122">
        <ele>2149.65</ele>
        <time>2014-03-27T15:04:49Z</time>
      </trkpt>
      <trkpt lat="44.79542" lon="6.95098">
        <ele>2144.84</ele>
        <time>2014-03-27T15:04:51Z</time>
      </trkpt>
      <trkpt lat="44.79543" lon="6.95076">
        <ele>2140.99</ele>
        <time>2014-03-27T15:04:53Z</time>
      </trkpt>
      <trkpt lat="44.79545" lon="6.95059">
        <ele>2138.11</ele>
        <time>2014-03-27T15:04:55Z</time>
      </trkpt>
      <trkpt lat="44.79541" lon="6.9505">
        <ele>2134.74</ele>
        <time>2014-03-27T15:04:57Z</time>
      </trkpt>
      <trkpt lat="44.79542" lon="6.95049">
        <ele>2135.23</ele>
        <time>2014-03-27T15:05:06Z</time>
      </trkpt>
      <trkpt lat="44.79543" lon="6.95049">
        <ele>2135.23</ele>
        <time>2014-03-27T15:05:40Z</time>
      </trkpt>
      <trkpt lat="44.79543" lon="6.95051">
        <ele>2135.23</ele>
        <time>2014-03-27T15:06:09Z</time>
      </trkpt>
      <trkpt lat="44.79545" lon="6.9505">
        <ele>2135.23</ele>
        <time>2014-03-27T15:06:36Z</time>
      </trkpt>
      <trkpt lat="44.79545" lon="6.95053">
        <ele>2135.23</ele>
        <time>2014-03-27T15:07:01Z</time>
      </trkpt>
      <trkpt lat="44.79543" lon="6.95051">
        <ele>2135.23</ele>
        <time>2014-03-27T15:07:13Z</time>
      </trkpt>
      <trkpt lat="44.79542" lon="6.95041">
        <ele>2134.26</ele>
        <time>2014-03-27T15:07:17Z</time>
      </trkpt>
      <trkpt lat="44.79546" lon="6.95023">
        <ele>2131.86</ele>
        <time>2014-03-27T15:07:20Z</time>
      </trkpt>
      <trkpt lat="44.79548" lon="6.94988">
        <ele>2127.53</ele>
        <time>2014-03-27T15:07:24Z</time>
      </trkpt>
      <trkpt lat="44.79547" lon="6.94959">
        <ele>2123.69</ele>
        <time>2014-03-27T15:07:27Z</time>
      </trkpt>
      <trkpt lat="44.79544" lon="6.9493">
        <ele>2118.4</ele>
        <time>2014-03-27T15:07:30Z</time>
      </trkpt>
      <trkpt lat="44.79543" lon="6.94907">
        <ele>2115.52</ele>
        <time>2014-03-27T15:07:33Z</time>
      </trkpt>
      <trkpt lat="44.79542" lon="6.94896">
        <ele>2112.15</ele>
        <time>2014-03-27T15:07:35Z</time>
      </trkpt>
      <trkpt lat="44.7954" lon="6.94887">
        <ele>2108.31</ele>
        <time>2014-03-27T15:07:37Z</time>
      </trkpt>
      <trkpt lat="44.79541" lon="6.94871">
        <ele>2103.98</ele>
        <time>2014-03-27T15:07:40Z</time>
      </trkpt>
      <trkpt lat="44.79541" lon="6.9486">
        <ele>2100.62</ele>
        <time>2014-03-27T15:07:42Z</time>
      </trkpt>
      <trkpt lat="44.79541" lon="6.94849">
        <ele>2097.25</ele>
        <time>2014-03-27T15:07:44Z</time>
      </trkpt>
      <trkpt lat="44.79542" lon="6.94838">
        <ele>2094.37</ele>
        <time>2014-03-27T15:07:46Z</time>
      </trkpt>
      <trkpt lat="44.79541" lon="6.94827">
        <ele>2091</ele>
        <time>2014-03-27T15:07:48Z</time>
      </trkpt>
      <trkpt lat="44.79541" lon="6.94815">
        <ele>2087.16</ele>
        <time>2014-03-27T15:07:50Z</time>
      </trkpt>
      <trkpt lat="44.79542" lon="6.94802">
        <ele>2084.28</ele>
        <time>2014-03-27T15:07:52Z</time>
      </trkpt>
      <trkpt lat="44.79538" lon="6.94783">
        <ele>2080.91</ele>
        <time>2014-03-27T15:07:55Z</time>
      </trkpt>
      <trkpt lat="44.79537" lon="6.94782">
        <ele>2079.47</ele>
        <time>2014-03-27T15:07:57Z</time>
      </trkpt>
      <trkpt lat="44.79541" lon="6.94781">
        <ele>2078.99</ele>
        <time>2014-03-27T15:08:15Z</time>
      </trkpt>
      <trkpt lat="44.79543" lon="6.94781">
        <ele>2078.99</ele>
        <time>2014-03-27T15:08:41Z</time>
      </trkpt>
      <trkpt lat="44.79541" lon="6.94783">
        <ele>2078.99</ele>
        <time>2014-03-27T15:09:05Z</time>
      </trkpt>
      <trkpt lat="44.79541" lon="6.94784">
        <ele>2078.99</ele>
        <time>2014-03-27T15:09:31Z</time>
      </trkpt>
      <trkpt lat="44.79538" lon="6.94773">
        <ele>2077.55</ele>
        <time>2014-03-27T15:09:35Z</time>
      </trkpt>
      <trkpt lat="44.79534" lon="6.9476">
        <ele>2076.1</ele>
        <time>2014-03-27T15:09:37Z</time>
      </trkpt>
      <trkpt lat="44.79532" lon="6.94739">
        <ele>2073.22</ele>
        <time>2014-03-27T15:09:40Z</time>
      </trkpt>
      <trkpt lat="44.7953" lon="6.94711">
        <ele>2067.93</ele>
        <time>2014-03-27T15:09:44Z</time>
      </trkpt>
      <trkpt lat="44.79529" lon="6.94686">
        <ele>2064.09</ele>
        <time>2014-03-27T15:09:48Z</time>
      </trkpt>
      <trkpt lat="44.79527" lon="6.94657">
        <ele>2059.28</ele>
        <time>2014-03-27T15:09:52Z</time>
      </trkpt>
      <trkpt lat="44.79525" lon="6.94643">
        <ele>2055.92</ele>
        <time>2014-03-27T15:09:54Z</time>
      </trkpt>
      <trkpt lat="44.79515" lon="6.94617">
        <ele>2048.71</ele>
        <time>2014-03-27T15:09:58Z</time>
      </trkpt>
      <trkpt lat="44.79505" lon="6.94605">
        <ele>2045.34</ele>
        <time>2014-03-27T15:10:00Z</time>
      </trkpt>
      <trkpt lat="44.79485" lon="6.94607">
        <ele>2041.02</ele>
        <time>2014-03-27T15:10:03Z</time>
      </trkpt>
      <trkpt lat="44.79476" lon="6.94607">
        <ele>2039.09</ele>
        <time>2014-03-27T15:10:04Z</time>
      </trkpt>
      <trkpt lat="44.79444" lon="6.94607">
        <ele>2034.29</ele>
        <time>2014-03-27T15:10:08Z</time>
      </trkpt>
      <trkpt lat="44.79423" lon="6.94608">
        <ele>2029.48</ele>
        <time>2014-03-27T15:10:11Z</time>
      </trkpt>
      <trkpt lat="44.79421" lon="6.94605">
        <ele>2027.08</ele>
        <time>2014-03-27T15:10:13Z</time>
      </trkpt>
      <trkpt lat="44.79419" lon="6.94602">
        <ele>2027.08</ele>
        <time>2014-03-27T15:10:19Z</time>
      </trkpt>
      <trkpt lat="44.79426" lon="6.94577">
        <ele>2023.71</ele>
        <time>2014-03-27T15:10:25Z</time>
      </trkpt>
      <trkpt lat="44.79434" lon="6.94564">
        <ele>2021.79</ele>
        <time>2014-03-27T15:10:27Z</time>
      </trkpt>
      <trkpt lat="44.79447" lon="6.94549">
        <ele>2020.83</ele>
        <time>2014-03-27T15:10:30Z</time>
      </trkpt>
      <trkpt lat="44.7946" lon="6.94529">
        <ele>2019.39</ele>
        <time>2014-03-27T15:10:33Z</time>
      </trkpt>
      <trkpt lat="44.79475" lon="6.94488">
        <ele>2014.58</ele>
        <time>2014-03-27T15:10:38Z</time>
      </trkpt>
      <trkpt lat="44.7948" lon="6.94455">
        <ele>2011.22</ele>
        <time>2014-03-27T15:10:42Z</time>
      </trkpt>
      <trkpt lat="44.79483" lon="6.94434">
        <ele>2007.85</ele>
        <time>2014-03-27T15:10:45Z</time>
      </trkpt>
      <trkpt lat="44.79485" lon="6.94414">
        <ele>2004.49</ele>
        <time>2014-03-27T15:10:48Z</time>
      </trkpt>
      <trkpt lat="44.79487" lon="6.94389">
        <ele>2000.16</ele>
        <time>2014-03-27T15:10:52Z</time>
      </trkpt>
      <trkpt lat="44.79487" lon="6.94385">
        <ele>1998.24</ele>
        <time>2014-03-27T15:10:54Z</time>
      </trkpt>
      <trkpt lat="44.79488" lon="6.94387">
        <ele>1998.24</ele>
        <time>2014-03-27T15:11:07Z</time>
      </trkpt>
      <trkpt lat="44.79488" lon="6.94387">
        <ele>1998.24</ele>
        <time>2014-03-27T15:11:18Z</time>
      </trkpt>
      <trkpt lat="44.79488" lon="6.94388">
        <ele>1996.32</ele>
        <time>2014-03-27T15:11:20Z</time>
      </trkpt>
      <trkpt lat="44.79487" lon="6.94386">
        <ele>1996.8</ele>
        <time>2014-03-27T15:11:53Z</time>
      </trkpt>
      <trkpt lat="44.79488" lon="6.94379">
        <ele>1996.8</ele>
        <time>2014-03-27T15:12:34Z</time>
      </trkpt>
      <trkpt lat="44.79489" lon="6.9438">
        <ele>1999.2</ele>
        <time>2014-03-27T15:13:10Z</time>
      </trkpt>
      <trkpt lat="44.79489" lon="6.9438">
        <ele>1999.2</ele>
        <time>2014-03-27T15:13:11Z</time>
      </trkpt>
      <trkpt lat="44.7949" lon="6.94383">
        <ele>1999.2</ele>
        <time>2014-03-27T15:13:26Z</time>
      </trkpt>
      <trkpt lat="44.79491" lon="6.94385">
        <ele>1999.2</ele>
        <time>2014-03-27T15:13:42Z</time>
      </trkpt>
      <trkpt lat="44.79491" lon="6.94386">
        <ele>1999.2</ele>
        <time>2014-03-27T15:13:53Z</time>
      </trkpt>
      <trkpt lat="44.79494" lon="6.94377">
        <ele>1997.76</ele>
        <time>2014-03-27T15:13:56Z</time>
      </trkpt>
      <trkpt lat="44.795" lon="6.9435">
        <ele>1993.43</ele>
        <time>2014-03-27T15:14:00Z</time>
      </trkpt>
      <trkpt lat="44.79504" lon="6.94334">
        <ele>1990.07</ele>
        <time>2014-03-27T15:14:02Z</time>
      </trkpt>
      <trkpt lat="44.79509" lon="6.94316">
        <ele>1986.7</ele>
        <time>2014-03-27T15:14:04Z</time>
      </trkpt>
      <trkpt lat="44.79514" lon="6.94297">
        <ele>1982.38</ele>
        <time>2014-03-27T15:14:06Z</time>
      </trkpt>
      <trkpt lat="44.79521" lon="6.94278">
        <ele>1979.01</ele>
        <time>2014-03-27T15:14:08Z</time>
      </trkpt>
      <trkpt lat="44.79523" lon="6.94268">
        <ele>1976.61</ele>
        <time>2014-03-27T15:14:09Z</time>
      </trkpt>
      <trkpt lat="44.79536" lon="6.94228">
        <ele>1967.48</ele>
        <time>2014-03-27T15:14:13Z</time>
      </trkpt>
      <trkpt lat="44.79548" lon="6.94194">
        <ele>1963.15</ele>
        <time>2014-03-27T15:14:16Z</time>
      </trkpt>
      <trkpt lat="44.79561" lon="6.94161">
        <ele>1958.82</ele>
        <time>2014-03-27T15:14:20Z</time>
      </trkpt>
      <trkpt lat="44.79559" lon="6.9416">
        <ele>1958.82</ele>
        <time>2014-03-27T15:14:27Z</time>
      </trkpt>
      <trkpt lat="44.79557" lon="6.94162">
        <ele>1958.82</ele>
        <time>2014-03-27T15:14:38Z</time>
      </trkpt>
      <trkpt lat="44.79558" lon="6.94161">
        <ele>1958.34</ele>
        <time>2014-03-27T15:14:42Z</time>
      </trkpt>
      <trkpt lat="44.79583" lon="6.94146">
        <ele>1956.42</ele>
        <time>2014-03-27T15:14:54Z</time>
      </trkpt>
      <trkpt lat="44.79599" lon="6.94132">
        <ele>1954.98</ele>
        <time>2014-03-27T15:14:58Z</time>
      </trkpt>
      <trkpt lat="44.79611" lon="6.94108">
        <ele>1950.65</ele>
        <time>2014-03-27T15:15:02Z</time>
      </trkpt>
      <trkpt lat="44.79613" lon="6.94084">
        <ele>1945.85</ele>
        <time>2014-03-27T15:15:05Z</time>
      </trkpt>
      <trkpt lat="44.79615" lon="6.94056">
        <ele>1940.56</ele>
        <time>2014-03-27T15:15:08Z</time>
      </trkpt>
      <trkpt lat="44.79616" lon="6.94037">
        <ele>1937.19</ele>
        <time>2014-03-27T15:15:10Z</time>
      </trkpt>
      <trkpt lat="44.79619" lon="6.94017">
        <ele>1931.91</ele>
        <time>2014-03-27T15:15:12Z</time>
      </trkpt>
      <trkpt lat="44.7962" lon="6.94007">
        <ele>1929.98</ele>
        <time>2014-03-27T15:15:13Z</time>
      </trkpt>
      <trkpt lat="44.79626" lon="6.93963">
        <ele>1919.41</ele>
        <time>2014-03-27T15:15:17Z</time>
      </trkpt>
      <trkpt lat="44.79631" lon="6.9394">
        <ele>1915.56</ele>
        <time>2014-03-27T15:15:19Z</time>
      </trkpt>
      <trkpt lat="44.79644" lon="6.9392">
        <ele>1911.72</ele>
        <time>2014-03-27T15:15:21Z</time>
      </trkpt>
      <trkpt lat="44.79659" lon="6.93904">
        <ele>1908.35</ele>
        <time>2014-03-27T15:15:23Z</time>
      </trkpt>
      <trkpt lat="44.79667" lon="6.93895">
        <ele>1903.55</ele>
        <time>2014-03-27T15:15:25Z</time>
      </trkpt>
      <trkpt lat="44.79668" lon="6.93893">
        <ele>1902.11</ele>
        <time>2014-03-27T15:15:27Z</time>
      </trkpt>
      <trkpt lat="44.79668" lon="6.93895">
        <ele>1903.55</ele>
        <time>2014-03-27T15:15:29Z</time>
      </trkpt>
      <trkpt lat="44.79668" lon="6.93898">
        <ele>1904.03</ele>
        <time>2014-03-27T15:15:46Z</time>
      </trkpt>
      <trkpt lat="44.79667" lon="6.93896">
        <ele>1903.55</ele>
        <time>2014-03-27T15:16:09Z</time>
      </trkpt>
      <trkpt lat="44.79667" lon="6.93896">
        <ele>1903.55</ele>
        <time>2014-03-27T15:16:10Z</time>
      </trkpt>
      <trkpt lat="44.79676" lon="6.93891">
        <ele>1903.55</ele>
        <time>2014-03-27T15:16:14Z</time>
      </trkpt>
      <trkpt lat="44.79704" lon="6.9386">
        <ele>1899.22</ele>
        <time>2014-03-27T15:16:20Z</time>
      </trkpt>
      <trkpt lat="44.7971" lon="6.93854">
        <ele>1899.22</ele>
        <time>2014-03-27T15:16:21Z</time>
      </trkpt>
      <trkpt lat="44.79744" lon="6.93827">
        <ele>1895.38</ele>
        <time>2014-03-27T15:16:27Z</time>
      </trkpt>
      <trkpt lat="44.79776" lon="6.93805">
        <ele>1892.01</ele>
        <time>2014-03-27T15:16:32Z</time>
      </trkpt>
      <trkpt lat="44.7979" lon="6.93796">
        <ele>1890.09</ele>
        <time>2014-03-27T15:16:34Z</time>
      </trkpt>
      <trkpt lat="44.79803" lon="6.93766">
        <ele>1886.24</ele>
        <time>2014-03-27T15:16:38Z</time>
      </trkpt>
      <trkpt lat="44.79789" lon="6.93758">
        <ele>1882.88</ele>
        <time>2014-03-27T15:16:40Z</time>
      </trkpt>
      <trkpt lat="44.79772" lon="6.93752">
        <ele>1879.51</ele>
        <time>2014-03-27T15:16:42Z</time>
      </trkpt>
      <trkpt lat="44.79756" lon="6.9375">
        <ele>1875.67</ele>
        <time>2014-03-27T15:16:44Z</time>
      </trkpt>
      <trkpt lat="44.79727" lon="6.93743">
        <ele>1868.94</ele>
        <time>2014-03-27T15:16:48Z</time>
      </trkpt>
      <trkpt lat="44.79712" lon="6.93738">
        <ele>1865.58</ele>
        <time>2014-03-27T15:16:50Z</time>
      </trkpt>
      <trkpt lat="44.79697" lon="6.93731">
        <ele>1861.25</ele>
        <time>2014-03-27T15:16:52Z</time>
      </trkpt>
      <trkpt lat="44.79683" lon="6.93727">
        <ele>1857.89</ele>
        <time>2014-03-27T15:16:54Z</time>
      </trkpt>
      <trkpt lat="44.79668" lon="6.93722">
        <ele>1853.56</ele>
        <time>2014-03-27T15:16:56Z</time>
      </trkpt>
      <trkpt lat="44.79655" lon="6.93713">
        <ele>1849.71</ele>
        <time>2014-03-27T15:16:58Z</time>
      </trkpt>
      <trkpt lat="44.79647" lon="6.93701">
        <ele>1846.35</ele>
        <time>2014-03-27T15:17:00Z</time>
      </trkpt>
      <trkpt lat="44.79644" lon="6.93683">
        <ele>1842.98</ele>
        <time>2014-03-27T15:17:02Z</time>
      </trkpt>
      <trkpt lat="44.79648" lon="6.93664">
        <ele>1838.18</ele>
        <time>2014-03-27T15:17:04Z</time>
      </trkpt>
      <trkpt lat="44.79658" lon="6.93647">
        <ele>1834.81</ele>
        <time>2014-03-27T15:17:06Z</time>
      </trkpt>
      <trkpt lat="44.79671" lon="6.93635">
        <ele>1831.45</ele>
        <time>2014-03-27T15:17:08Z</time>
      </trkpt>
      <trkpt lat="44.79684" lon="6.93622">
        <ele>1827.12</ele>
        <time>2014-03-27T15:17:10Z</time>
      </trkpt>
      <trkpt lat="44.79699" lon="6.93601">
        <ele>1822.8</ele>
        <time>2014-03-27T15:17:13Z</time>
      </trkpt>
      <trkpt lat="44.79711" lon="6.9359">
        <ele>1819.43</ele>
        <time>2014-03-27T15:17:15Z</time>
      </trkpt>
      <trkpt lat="44.79738" lon="6.93564">
        <ele>1813.18</ele>
        <time>2014-03-27T15:17:19Z</time>
      </trkpt>
      <trkpt lat="44.79736" lon="6.93546">
        <ele>1809.82</ele>
        <time>2014-03-27T15:17:21Z</time>
      </trkpt>
      <trkpt lat="44.79723" lon="6.93534">
        <ele>1806.45</ele>
        <time>2014-03-27T15:17:23Z</time>
      </trkpt>
      <trkpt lat="44.79715" lon="6.93532">
        <ele>1803.57</ele>
        <time>2014-03-27T15:17:24Z</time>
      </trkpt>
      <trkpt lat="44.79698" lon="6.93524">
        <ele>1799.24</ele>
        <time>2014-03-27T15:17:26Z</time>
      </trkpt>
      <trkpt lat="44.7969" lon="6.93521">
        <ele>1795.88</ele>
        <time>2014-03-27T15:17:27Z</time>
      </trkpt>
      <trkpt lat="44.79678" lon="6.93511">
        <ele>1791.55</ele>
        <time>2014-03-27T15:17:29Z</time>
      </trkpt>
      <trkpt lat="44.79672" lon="6.93509">
        <ele>1789.63</ele>
        <time>2014-03-27T15:17:30Z</time>
      </trkpt>
      <trkpt lat="44.79649" lon="6.93485">
        <ele>1782.42</ele>
        <time>2014-03-27T15:17:34Z</time>
      </trkpt>
      <trkpt lat="44.79638" lon="6.93473">
        <ele>1779.54</ele>
        <time>2014-03-27T15:17:36Z</time>
      </trkpt>
      <trkpt lat="44.79627" lon="6.93461">
        <ele>1774.73</ele>
        <time>2014-03-27T15:17:38Z</time>
      </trkpt>
      <trkpt lat="44.79617" lon="6.93449">
        <ele>1770.89</ele>
        <time>2014-03-27T15:17:40Z</time>
      </trkpt>
      <trkpt lat="44.79607" lon="6.93439">
        <ele>1768</ele>
        <time>2014-03-27T15:17:42Z</time>
      </trkpt>
      <trkpt lat="44.79595" lon="6.93429">
        <ele>1763.68</ele>
        <time>2014-03-27T15:17:44Z</time>
      </trkpt>
      <trkpt lat="44.79582" lon="6.93422">
        <ele>1759.35</ele>
        <time>2014-03-27T15:17:46Z</time>
      </trkpt>
      <trkpt lat="44.79576" lon="6.93418">
        <ele>1756.47</ele>
        <time>2014-03-27T15:17:47Z</time>
      </trkpt>
      <trkpt lat="44.7957" lon="6.93412">
        <ele>1753.1</ele>
        <time>2014-03-27T15:17:48Z</time>
      </trkpt>
      <trkpt lat="44.79557" lon="6.93404">
        <ele>1749.74</ele>
        <time>2014-03-27T15:17:50Z</time>
      </trkpt>
      <trkpt lat="44.79545" lon="6.93394">
        <ele>1745.41</ele>
        <time>2014-03-27T15:17:52Z</time>
      </trkpt>
      <trkpt lat="44.79533" lon="6.93386">
        <ele>1741.57</ele>
        <time>2014-03-27T15:17:54Z</time>
      </trkpt>
      <trkpt lat="44.79523" lon="6.93379">
        <ele>1737.72</ele>
        <time>2014-03-27T15:17:56Z</time>
      </trkpt>
      <trkpt lat="44.79512" lon="6.93373">
        <ele>1734.36</ele>
        <time>2014-03-27T15:17:58Z</time>
      </trkpt>
      <trkpt lat="44.79501" lon="6.93365">
        <ele>1730.03</ele>
        <time>2014-03-27T15:18:00Z</time>
      </trkpt>
      <trkpt lat="44.79495" lon="6.93362">
        <ele>1727.63</ele>
        <time>2014-03-27T15:18:01Z</time>
      </trkpt>
      <trkpt lat="44.79483" lon="6.93355">
        <ele>1723.3</ele>
        <time>2014-03-27T15:18:03Z</time>
      </trkpt>
      <trkpt lat="44.7947" lon="6.93339">
        <ele>1716.09</ele>
        <time>2014-03-27T15:18:06Z</time>
      </trkpt>
      <trkpt lat="44.7946" lon="6.93314">
        <ele>1709.36</ele>
        <time>2014-03-27T15:18:09Z</time>
      </trkpt>
      <trkpt lat="44.7946" lon="6.93303">
        <ele>1706</ele>
        <time>2014-03-27T15:18:10Z</time>
      </trkpt>
      <trkpt lat="44.79458" lon="6.93294">
        <ele>1703.11</ele>
        <time>2014-03-27T15:18:14Z</time>
      </trkpt>
      <trkpt lat="44.7946" lon="6.93295">
        <ele>1702.15</ele>
        <time>2014-03-27T15:18:18Z</time>
      </trkpt>
      <trkpt lat="44.79458" lon="6.93295">
        <ele>1703.59</ele>
        <time>2014-03-27T15:18:36Z</time>
      </trkpt>
      <trkpt lat="44.79458" lon="6.93294">
        <ele>1703.59</ele>
        <time>2014-03-27T15:18:54Z</time>
      </trkpt>
      <trkpt lat="44.79459" lon="6.93294">
        <ele>1703.59</ele>
        <time>2014-03-27T15:19:15Z</time>
      </trkpt>
      <trkpt lat="44.79462" lon="6.93291">
        <ele>1704.55</ele>
        <time>2014-03-27T15:19:50Z</time>
      </trkpt>
      <trkpt lat="44.79463" lon="6.93295">
        <ele>1703.59</ele>
        <time>2014-03-27T15:20:04Z</time>
      </trkpt>
      <trkpt lat="44.7946" lon="6.93296">
        <ele>1703.59</ele>
        <time>2014-03-27T15:20:23Z</time>
      </trkpt>
      <trkpt lat="44.7946" lon="6.93296">
        <ele>1703.59</ele>
        <time>2014-03-27T15:20:42Z</time>
      </trkpt>
      <trkpt lat="44.7946" lon="6.93296">
        <ele>1703.59</ele>
        <time>2014-03-27T15:20:47Z</time>
      </trkpt>
      <trkpt lat="44.79475" lon="6.93268">
        <ele>1700.23</ele>
        <time>2014-03-27T15:20:54Z</time>
      </trkpt>
      <trkpt lat="44.79493" lon="6.93243">
        <ele>1696.38</ele>
        <time>2014-03-27T15:20:58Z</time>
      </trkpt>
      <trkpt lat="44.79512" lon="6.93223">
        <ele>1689.65</ele>
        <time>2014-03-27T15:21:02Z</time>
      </trkpt>
      <trkpt lat="44.79517" lon="6.93219">
        <ele>1688.21</ele>
        <time>2014-03-27T15:21:03Z</time>
      </trkpt>
      <trkpt lat="44.79538" lon="6.93196">
        <ele>1680.52</ele>
        <time>2014-03-27T15:21:07Z</time>
      </trkpt>
      <trkpt lat="44.7954" lon="6.93178">
        <ele>1677.16</ele>
        <time>2014-03-27T15:21:09Z</time>
      </trkpt>
      <trkpt lat="44.79532" lon="6.93165">
        <ele>1673.79</ele>
        <time>2014-03-27T15:21:11Z</time>
      </trkpt>
      <trkpt lat="44.79528" lon="6.9316">
        <ele>1672.83</ele>
        <time>2014-03-27T15:21:12Z</time>
      </trkpt>
      <trkpt lat="44.79507" lon="6.9315">
        <ele>1666.1</ele>
        <time>2014-03-27T15:21:16Z</time>
      </trkpt>
      <trkpt lat="44.79489" lon="6.93143">
        <ele>1661.78</ele>
        <time>2014-03-27T15:21:19Z</time>
      </trkpt>
      <trkpt lat="44.79482" lon="6.9314">
        <ele>1658.89</ele>
        <time>2014-03-27T15:21:20Z</time>
      </trkpt>
      <trkpt lat="44.79469" lon="6.93138">
        <ele>1655.53</ele>
        <time>2014-03-27T15:21:22Z</time>
      </trkpt>
      <trkpt lat="44.79453" lon="6.93136">
        <ele>1651.2</ele>
        <time>2014-03-27T15:21:24Z</time>
      </trkpt>
      <trkpt lat="44.79438" lon="6.93132">
        <ele>1647.36</ele>
        <time>2014-03-27T15:21:26Z</time>
      </trkpt>
      <trkpt lat="44.79423" lon="6.93133">
        <ele>1642.07</ele>
        <time>2014-03-27T15:21:28Z</time>
      </trkpt>
      <trkpt lat="44.79408" lon="6.93133">
        <ele>1637.74</ele>
        <time>2014-03-27T15:21:30Z</time>
      </trkpt>
      <trkpt lat="44.79393" lon="6.93131">
        <ele>1633.9</ele>
        <time>2014-03-27T15:21:32Z</time>
      </trkpt>
      <trkpt lat="44.79385" lon="6.93132">
        <ele>1630.53</ele>
        <time>2014-03-27T15:21:33Z</time>
      </trkpt>
      <trkpt lat="44.79371" lon="6.93127">
        <ele>1627.17</ele>
        <time>2014-03-27T15:21:35Z</time>
      </trkpt>
      <trkpt lat="44.79356" lon="6.93124">
        <ele>1622.84</ele>
        <time>2014-03-27T15:21:37Z</time>
      </trkpt>
      <trkpt lat="44.7934" lon="6.93115">
        <ele>1618.52</ele>
        <time>2014-03-27T15:21:39Z</time>
      </trkpt>
      <trkpt lat="44.79328" lon="6.931">
        <ele>1612.27</ele>
        <time>2014-03-27T15:21:41Z</time>
      </trkpt>
      <trkpt lat="44.79313" lon="6.93091">
        <ele>1608.42</ele>
        <time>2014-03-27T15:21:43Z</time>
      </trkpt>
      <trkpt lat="44.79292" lon="6.93082">
        <ele>1603.14</ele>
        <time>2014-03-27T15:21:46Z</time>
      </trkpt>
      <trkpt lat="44.79257" lon="6.93072">
        <ele>1592.56</ele>
        <time>2014-03-27T15:21:50Z</time>
      </trkpt>
      <trkpt lat="44.79239" lon="6.93054">
        <ele>1587.75</ele>
        <time>2014-03-27T15:21:52Z</time>
      </trkpt>
      <trkpt lat="44.79231" lon="6.93044">
        <ele>1584.87</ele>
        <time>2014-03-27T15:21:53Z</time>
      </trkpt>
      <trkpt lat="44.79215" lon="6.93023">
        <ele>1579.58</ele>
        <time>2014-03-27T15:21:55Z</time>
      </trkpt>
      <trkpt lat="44.79189" lon="6.92996">
        <ele>1571.89</ele>
        <time>2014-03-27T15:21:58Z</time>
      </trkpt>
      <trkpt lat="44.79171" lon="6.92981">
        <ele>1567.09</ele>
        <time>2014-03-27T15:22:00Z</time>
      </trkpt>
      <trkpt lat="44.79155" lon="6.92964">
        <ele>1563.72</ele>
        <time>2014-03-27T15:22:02Z</time>
      </trkpt>
      <trkpt lat="44.79146" lon="6.92957">
        <ele>1561.32</ele>
        <time>2014-03-27T15:22:03Z</time>
      </trkpt>
      <trkpt lat="44.79123" lon="6.9294">
        <ele>1554.59</ele>
        <time>2014-03-27T15:22:06Z</time>
      </trkpt>
      <trkpt lat="44.79095" lon="6.92956">
        <ele>1552.67</ele>
        <time>2014-03-27T15:22:10Z</time>
      </trkpt>
      <trkpt lat="44.79084" lon="6.92962">
        <ele>1549.3</ele>
        <time>2014-03-27T15:22:14Z</time>
      </trkpt>
      <trkpt lat="44.79086" lon="6.92953">
        <ele>1548.34</ele>
        <time>2014-03-27T15:22:23Z</time>
      </trkpt>
      <trkpt lat="44.79086" lon="6.92952">
        <ele>1548.82</ele>
        <time>2014-03-27T15:22:36Z</time>
      </trkpt>
      <trkpt lat="44.79084" lon="6.92954">
        <ele>1548.82</ele>
        <time>2014-03-27T15:22:46Z</time>
      </trkpt>
      <trkpt lat="44.7908" lon="6.92959">
        <ele>1548.82</ele>
        <time>2014-03-27T15:22:59Z</time>
      </trkpt>
      <trkpt lat="44.79078" lon="6.92959">
        <ele>1548.82</ele>
        <time>2014-03-27T15:23:21Z</time>
      </trkpt>
      <trkpt lat="44.79078" lon="6.92961">
        <ele>1548.82</ele>
        <time>2014-03-27T15:23:32Z</time>
      </trkpt>
      <trkpt lat="44.79074" lon="6.92967">
        <ele>1550.26</ele>
        <time>2014-03-27T15:23:43Z</time>
      </trkpt>
      <trkpt lat="44.79071" lon="6.92971">
        <ele>1550.26</ele>
        <time>2014-03-27T15:23:55Z</time>
      </trkpt>
      <trkpt lat="44.7907" lon="6.92971">
        <ele>1550.26</ele>
        <time>2014-03-27T15:24:14Z</time>
      </trkpt>
      <trkpt lat="44.79068" lon="6.92974">
        <ele>1550.26</ele>
        <time>2014-03-27T15:24:27Z</time>
      </trkpt>
      <trkpt lat="44.79066" lon="6.92974">
        <ele>1550.26</ele>
        <time>2014-03-27T15:24:46Z</time>
      </trkpt>
      <trkpt lat="44.79063" lon="6.92978">
        <ele>1550.74</ele>
        <time>2014-03-27T15:25:05Z</time>
      </trkpt>
      <trkpt lat="44.79061" lon="6.9298">
        <ele>1550.74</ele>
        <time>2014-03-27T15:25:07Z</time>
      </trkpt>
      <trkpt lat="44.7906" lon="6.92982">
        <ele>1551.22</ele>
        <time>2014-03-27T15:25:09Z</time>
      </trkpt>
      <trkpt lat="44.79051" lon="6.92995">
        <ele>1551.71</ele>
        <time>2014-03-27T15:25:24Z</time>
      </trkpt>
      <trkpt lat="44.79043" lon="6.93006">
        <ele>1552.67</ele>
        <time>2014-03-27T15:25:37Z</time>
      </trkpt>
      <trkpt lat="44.79032" lon="6.93019">
        <ele>1553.63</ele>
        <time>2014-03-27T15:25:52Z</time>
      </trkpt>
      <trkpt lat="44.79018" lon="6.93032">
        <ele>1554.59</ele>
        <time>2014-03-27T15:26:07Z</time>
      </trkpt>
      <trkpt lat="44.79004" lon="6.93043">
        <ele>1555.55</ele>
        <time>2014-03-27T15:26:22Z</time>
      </trkpt>
      <trkpt lat="44.78991" lon="6.93053">
        <ele>1556.03</ele>
        <time>2014-03-27T15:26:38Z</time>
      </trkpt>
      <trkpt lat="44.78979" lon="6.9306">
        <ele>1556.51</ele>
        <time>2014-03-27T15:26:53Z</time>
      </trkpt>
      <trkpt lat="44.7898" lon="6.93058">
        <ele>1556.51</ele>
        <time>2014-03-27T15:27:15Z</time>
      </trkpt>
      <trkpt lat="44.78971" lon="6.93065">
        <ele>1556.51</ele>
        <time>2014-03-27T15:27:29Z</time>
      </trkpt>
      <trkpt lat="44.78958" lon="6.93075">
        <ele>1556.99</ele>
        <time>2014-03-27T15:27:44Z</time>
      </trkpt>
      <trkpt lat="44.78946" lon="6.93085">
        <ele>1557.47</ele>
        <time>2014-03-27T15:27:59Z</time>
      </trkpt>
      <trkpt lat="44.78936" lon="6.93093">
        <ele>1557.47</ele>
        <time>2014-03-27T15:28:12Z</time>
      </trkpt>
      <trkpt lat="44.78924" lon="6.93107">
        <ele>1557.47</ele>
        <time>2014-03-27T15:28:27Z</time>
      </trkpt>
      <trkpt lat="44.78922" lon="6.93115">
        <ele>1557.47</ele>
        <time>2014-03-27T15:28:34Z</time>
      </trkpt>
      <trkpt lat="44.78922" lon="6.93126">
        <ele>1557.47</ele>
        <time>2014-03-27T15:28:43Z</time>
      </trkpt>
      <trkpt lat="44.78921" lon="6.93145">
        <ele>1558.92</ele>
        <time>2014-03-27T15:29:00Z</time>
      </trkpt>
      <trkpt lat="44.78918" lon="6.9316">
        <ele>1560.36</ele>
        <time>2014-03-27T15:29:17Z</time>
      </trkpt>
      <trkpt lat="44.78915" lon="6.93174">
        <ele>1561.8</ele>
        <time>2014-03-27T15:29:32Z</time>
      </trkpt>
      <trkpt lat="44.78911" lon="6.93187">
        <ele>1563.72</ele>
        <time>2014-03-27T15:29:49Z</time>
      </trkpt>
      <trkpt lat="44.78909" lon="6.93199">
        <ele>1565.16</ele>
        <time>2014-03-27T15:30:02Z</time>
      </trkpt>
      <trkpt lat="44.78905" lon="6.93217">
        <ele>1567.09</ele>
        <time>2014-03-27T15:30:18Z</time>
      </trkpt>
      <trkpt lat="44.78901" lon="6.93232">
        <ele>1569.01</ele>
        <time>2014-03-27T15:30:32Z</time>
      </trkpt>
      <trkpt lat="44.78898" lon="6.93247">
        <ele>1570.93</ele>
        <time>2014-03-27T15:30:47Z</time>
      </trkpt>
      <trkpt lat="44.78894" lon="6.93263">
        <ele>1572.37</ele>
        <time>2014-03-27T15:31:01Z</time>
      </trkpt>
      <trkpt lat="44.78887" lon="6.93275">
        <ele>1575.26</ele>
        <time>2014-03-27T15:31:14Z</time>
      </trkpt>
      <trkpt lat="44.78886" lon="6.93275">
        <ele>1575.26</ele>
        <time>2014-03-27T15:31:15Z</time>
      </trkpt>
      <trkpt lat="44.78879" lon="6.93278">
        <ele>1573.82</ele>
        <time>2014-03-27T15:31:21Z</time>
      </trkpt>
      <trkpt lat="44.7887" lon="6.93278">
        <ele>1573.82</ele>
        <time>2014-03-27T15:31:35Z</time>
      </trkpt>
      <trkpt lat="44.78867" lon="6.93278">
        <ele>1575.26</ele>
        <time>2014-03-27T15:31:39Z</time>
      </trkpt>
      <trkpt lat="44.78854" lon="6.93284">
        <ele>1575.26</ele>
        <time>2014-03-27T15:31:53Z</time>
      </trkpt>
      <trkpt lat="44.78857" lon="6.93293">
        <ele>1577.18</ele>
        <time>2014-03-27T15:32:07Z</time>
      </trkpt>
      <trkpt lat="44.78853" lon="6.933">
        <ele>1578.62</ele>
        <time>2014-03-27T15:32:21Z</time>
      </trkpt>
      <trkpt lat="44.78851" lon="6.93305">
        <ele>1579.1</ele>
        <time>2014-03-27T15:32:34Z</time>
      </trkpt>
      <trkpt lat="44.78853" lon="6.933">
        <ele>1579.58</ele>
        <time>2014-03-27T15:32:46Z</time>
      </trkpt>
      <trkpt lat="44.78853" lon="6.93297">
        <ele>1579.58</ele>
        <time>2014-03-27T15:33:00Z</time>
      </trkpt>
      <trkpt lat="44.78851" lon="6.933">
        <ele>1579.58</ele>
        <time>2014-03-27T15:33:14Z</time>
      </trkpt>
      <trkpt lat="44.78848" lon="6.933">
        <ele>1579.58</ele>
        <time>2014-03-27T15:33:33Z</time>
      </trkpt>
      <trkpt lat="44.78849" lon="6.933">
        <ele>1579.58</ele>
        <time>2014-03-27T15:33:49Z</time>
      </trkpt>
      <trkpt lat="44.78849" lon="6.93299">
        <ele>1580.06</ele>
        <time>2014-03-27T15:34:03Z</time>
      </trkpt>
      <trkpt lat="44.7885" lon="6.93296">
        <ele>1580.06</ele>
        <time>2014-03-27T15:34:17Z</time>
      </trkpt>
      <trkpt lat="44.78848" lon="6.93299">
        <ele>1580.06</ele>
        <time>2014-03-27T15:34:34Z</time>
      </trkpt>
      <trkpt lat="44.78848" lon="6.93297">
        <ele>1577.66</ele>
        <time>2014-03-27T15:34:40Z</time>
      </trkpt>
      <trkpt lat="44.7885" lon="6.93297">
        <ele>1578.14</ele>
        <time>2014-03-27T15:35:01Z</time>
      </trkpt>
      <trkpt lat="44.78852" lon="6.93295">
        <ele>1578.14</ele>
        <time>2014-03-27T15:35:32Z</time>
      </trkpt>
      <trkpt lat="44.78851" lon="6.93294">
        <ele>1578.14</ele>
        <time>2014-03-27T15:36:03Z</time>
      </trkpt>
      <trkpt lat="44.78849" lon="6.93294">
        <ele>1578.14</ele>
        <time>2014-03-27T15:36:26Z</time>
      </trkpt>
      <trkpt lat="44.78853" lon="6.93296">
        <ele>1578.14</ele>
        <time>2014-03-27T15:36:53Z</time>
      </trkpt>
      <trkpt lat="44.78851" lon="6.93295">
        <ele>1578.14</ele>
        <time>2014-03-27T15:37:16Z</time>
      </trkpt>
      <trkpt lat="44.78851" lon="6.93294">
        <ele>1578.14</ele>
        <time>2014-03-27T15:37:46Z</time>
      </trkpt>
      <trkpt lat="44.78851" lon="6.93298">
        <ele>1574.78</ele>
        <time>2014-03-27T15:38:15Z</time>
      </trkpt>
      <trkpt lat="44.78851" lon="6.93298">
        <ele>1578.62</ele>
        <time>2014-03-27T15:38:16Z</time>
      </trkpt>
      <trkpt lat="44.7885" lon="6.93298">
        <ele>1577.18</ele>
        <time>2014-03-27T15:38:20Z</time>
      </trkpt>
      <trkpt lat="44.7885" lon="6.93298">
        <ele>1578.62</ele>
        <time>2014-03-27T15:38:22Z</time>
      </trkpt>
      <trkpt lat="44.78851" lon="6.93294">
        <ele>1578.62</ele>
        <time>2014-03-27T15:38:46Z</time>
      </trkpt>
      <trkpt lat="44.78851" lon="6.93287">
        <ele>1578.62</ele>
        <time>2014-03-27T15:39:17Z</time>
      </trkpt>
      <trkpt lat="44.78852" lon="6.93284">
        <ele>1579.1</ele>
        <time>2014-03-27T15:39:43Z</time>
      </trkpt>
      <trkpt lat="44.78851" lon="6.93289">
        <ele>1578.62</ele>
        <time>2014-03-27T15:40:07Z</time>
      </trkpt>
      <trkpt lat="44.7885" lon="6.93293">
        <ele>1579.1</ele>
        <time>2014-03-27T15:40:26Z</time>
      </trkpt>
      <trkpt lat="44.78848" lon="6.93299">
        <ele>1580.54</ele>
        <time>2014-03-27T15:40:42Z</time>
      </trkpt>
      <trkpt lat="44.78847" lon="6.93302">
        <ele>1579.58</ele>
        <time>2014-03-27T15:40:58Z</time>
      </trkpt>
      <trkpt lat="44.78847" lon="6.93303">
        <ele>1579.1</ele>
        <time>2014-03-27T15:41:02Z</time>
      </trkpt>
    </trkseg>
  </trk>
</gpx>